<?xml version="1.0" encoding="UTF-8" standalone="no" ?>
<gpx xmlns="http://www.topografix.com/GPX/1/1" xmlns:xsi="http://www.w3.org/2001/XMLSchema-instance" xsi:schemaLocation="http://www.topografix.com/GPX/1/1 http://www.topografix.com/GPX/1/1/gpx.xsd" version="1.1" creator="VisuGPX - https://www.visugpx.com">
  <metadata>
    <name>64 - VTT - Sur les coteaux du Béarn</name>
    <desc><![CDATA[Reprise après le roc d\'azur]]></desc>
  </metadata>
  <trk>
    <name><![CDATA[ACTIVE LOG]]></name>
    <trkseg>
      <trkpt lat="43.31571" lon="-0.58645">
        <ele>211.146729</ele>
        <time>2013-10-23T08:59:09Z</time>
      </trkpt>
      <trkpt lat="43.31571" lon="-0.58644">
        <ele>211.146729</ele>
        <time>2013-10-23T08:59:11Z</time>
      </trkpt>
      <trkpt lat="43.31571" lon="-0.58645">
        <ele>212.108032</ele>
        <time>2013-10-23T08:59:13Z</time>
      </trkpt>
      <trkpt lat="43.31569" lon="-0.58648">
        <ele>212.108032</ele>
        <time>2013-10-23T08:59:34Z</time>
      </trkpt>
      <trkpt lat="43.31567" lon="-0.58646">
        <ele>212.108032</ele>
        <time>2013-10-23T09:00:03Z</time>
      </trkpt>
      <trkpt lat="43.3157" lon="-0.58648">
        <ele>211.146729</ele>
        <time>2013-10-23T09:00:43Z</time>
      </trkpt>
      <trkpt lat="43.31572" lon="-0.58647">
        <ele>211.146729</ele>
        <time>2013-10-23T09:01:07Z</time>
      </trkpt>
      <trkpt lat="43.31572" lon="-0.58649">
        <ele>212.108032</ele>
        <time>2013-10-23T09:01:09Z</time>
      </trkpt>
      <trkpt lat="43.31585" lon="-0.58617">
        <ele>210.666016</ele>
        <time>2013-10-23T09:01:18Z</time>
      </trkpt>
      <trkpt lat="43.31585" lon="-0.58599">
        <ele>210.185425</ele>
        <time>2013-10-23T09:01:20Z</time>
      </trkpt>
      <trkpt lat="43.31581" lon="-0.58559">
        <ele>207.301392</ele>
        <time>2013-10-23T09:01:25Z</time>
      </trkpt>
      <trkpt lat="43.3158" lon="-0.58548">
        <ele>206.820679</ele>
        <time>2013-10-23T09:01:27Z</time>
      </trkpt>
      <trkpt lat="43.31571" lon="-0.58541">
        <ele>207.301392</ele>
        <time>2013-10-23T09:01:31Z</time>
      </trkpt>
      <trkpt lat="43.31551" lon="-0.58542">
        <ele>209.224121</ele>
        <time>2013-10-23T09:01:40Z</time>
      </trkpt>
      <trkpt lat="43.31522" lon="-0.58541">
        <ele>212.588623</ele>
        <time>2013-10-23T09:01:52Z</time>
      </trkpt>
      <trkpt lat="43.31486" lon="-0.5855">
        <ele>215.953247</ele>
        <time>2013-10-23T09:02:07Z</time>
      </trkpt>
      <trkpt lat="43.31452" lon="-0.58574">
        <ele>218.83728</ele>
        <time>2013-10-23T09:02:22Z</time>
      </trkpt>
      <trkpt lat="43.31421" lon="-0.58599">
        <ele>222.201782</ele>
        <time>2013-10-23T09:02:35Z</time>
      </trkpt>
      <trkpt lat="43.31381" lon="-0.58603">
        <ele>223.163208</ele>
        <time>2013-10-23T09:02:48Z</time>
      </trkpt>
      <trkpt lat="43.31312" lon="-0.58596">
        <ele>223.163208</ele>
        <time>2013-10-23T09:03:05Z</time>
      </trkpt>
      <trkpt lat="43.31248" lon="-0.58573">
        <ele>224.605225</ele>
        <time>2013-10-23T09:03:23Z</time>
      </trkpt>
      <trkpt lat="43.31202" lon="-0.5856">
        <ele>227.969727</ele>
        <time>2013-10-23T09:03:37Z</time>
      </trkpt>
      <trkpt lat="43.31153" lon="-0.58555">
        <ele>229.411743</ele>
        <time>2013-10-23T09:03:52Z</time>
      </trkpt>
      <trkpt lat="43.31103" lon="-0.58568">
        <ele>230.373047</ele>
        <time>2013-10-23T09:04:08Z</time>
      </trkpt>
      <trkpt lat="43.31078" lon="-0.58576">
        <ele>231.334351</ele>
        <time>2013-10-23T09:04:16Z</time>
      </trkpt>
      <trkpt lat="43.31085" lon="-0.5859">
        <ele>234.699097</ele>
        <time>2013-10-23T09:04:23Z</time>
      </trkpt>
      <trkpt lat="43.3109" lon="-0.58592">
        <ele>235.179688</ele>
        <time>2013-10-23T09:04:25Z</time>
      </trkpt>
      <trkpt lat="43.31123" lon="-0.58616">
        <ele>236.621704</ele>
        <time>2013-10-23T09:04:39Z</time>
      </trkpt>
      <trkpt lat="43.31145" lon="-0.58635">
        <ele>239.505493</ele>
        <time>2013-10-23T09:04:49Z</time>
      </trkpt>
      <trkpt lat="43.31167" lon="-0.58649">
        <ele>241.428223</ele>
        <time>2013-10-23T09:04:59Z</time>
      </trkpt>
      <trkpt lat="43.31218" lon="-0.58679">
        <ele>243.831543</ele>
        <time>2013-10-23T09:05:18Z</time>
      </trkpt>
      <trkpt lat="43.31285" lon="-0.58724">
        <ele>246.234863</ele>
        <time>2013-10-23T09:05:38Z</time>
      </trkpt>
      <trkpt lat="43.31303" lon="-0.58749">
        <ele>246.234863</ele>
        <time>2013-10-23T09:05:45Z</time>
      </trkpt>
      <trkpt lat="43.31351" lon="-0.58795">
        <ele>246.234863</ele>
        <time>2013-10-23T09:05:58Z</time>
      </trkpt>
      <trkpt lat="43.3143" lon="-0.58868">
        <ele>242.870239</ele>
        <time>2013-10-23T09:06:15Z</time>
      </trkpt>
      <trkpt lat="43.31435" lon="-0.58874">
        <ele>242.870239</ele>
        <time>2013-10-23T09:06:16Z</time>
      </trkpt>
      <trkpt lat="43.31504" lon="-0.58972">
        <ele>239.505493</ele>
        <time>2013-10-23T09:06:30Z</time>
      </trkpt>
      <trkpt lat="43.3152" lon="-0.5899">
        <ele>239.505493</ele>
        <time>2013-10-23T09:06:33Z</time>
      </trkpt>
      <trkpt lat="43.31566" lon="-0.59032">
        <ele>237.582886</ele>
        <time>2013-10-23T09:06:41Z</time>
      </trkpt>
      <trkpt lat="43.31638" lon="-0.59097">
        <ele>239.505493</ele>
        <time>2013-10-23T09:06:57Z</time>
      </trkpt>
      <trkpt lat="43.31688" lon="-0.59121">
        <ele>241.908936</ele>
        <time>2013-10-23T09:07:10Z</time>
      </trkpt>
      <trkpt lat="43.31728" lon="-0.59116">
        <ele>245.273438</ele>
        <time>2013-10-23T09:07:21Z</time>
      </trkpt>
      <trkpt lat="43.31769" lon="-0.59094">
        <ele>248.638184</ele>
        <time>2013-10-23T09:07:33Z</time>
      </trkpt>
      <trkpt lat="43.31772" lon="-0.59093">
        <ele>248.638184</ele>
        <time>2013-10-23T09:07:34Z</time>
      </trkpt>
      <trkpt lat="43.31829" lon="-0.59081">
        <ele>247.196045</ele>
        <time>2013-10-23T09:07:50Z</time>
      </trkpt>
      <trkpt lat="43.31864" lon="-0.59082">
        <ele>243.35083</ele>
        <time>2013-10-23T09:07:54Z</time>
      </trkpt>
      <trkpt lat="43.31883" lon="-0.59085">
        <ele>240.467041</ele>
        <time>2013-10-23T09:07:56Z</time>
      </trkpt>
      <trkpt lat="43.31899" lon="-0.59086">
        <ele>237.102295</ele>
        <time>2013-10-23T09:07:58Z</time>
      </trkpt>
      <trkpt lat="43.31906" lon="-0.59087">
        <ele>236.621704</ele>
        <time>2013-10-23T09:07:59Z</time>
      </trkpt>
      <trkpt lat="43.31924" lon="-0.59085">
        <ele>233.737671</ele>
        <time>2013-10-23T09:08:03Z</time>
      </trkpt>
      <trkpt lat="43.31938" lon="-0.59074">
        <ele>233.25708</ele>
        <time>2013-10-23T09:08:07Z</time>
      </trkpt>
      <trkpt lat="43.31972" lon="-0.5901">
        <ele>234.699097</ele>
        <time>2013-10-23T09:08:20Z</time>
      </trkpt>
      <trkpt lat="43.31989" lon="-0.58981">
        <ele>234.699097</ele>
        <time>2013-10-23T09:08:26Z</time>
      </trkpt>
      <trkpt lat="43.32025" lon="-0.58961">
        <ele>238.063599</ele>
        <time>2013-10-23T09:08:38Z</time>
      </trkpt>
      <trkpt lat="43.32046" lon="-0.58959">
        <ele>240.947632</ele>
        <time>2013-10-23T09:08:47Z</time>
      </trkpt>
      <trkpt lat="43.32067" lon="-0.58961">
        <ele>244.792847</ele>
        <time>2013-10-23T09:08:56Z</time>
      </trkpt>
      <trkpt lat="43.32069" lon="-0.58961">
        <ele>244.792847</ele>
        <time>2013-10-23T09:08:57Z</time>
      </trkpt>
      <trkpt lat="43.32099" lon="-0.58983">
        <ele>246.234863</ele>
        <time>2013-10-23T09:09:11Z</time>
      </trkpt>
      <trkpt lat="43.32106" lon="-0.58996">
        <ele>245.75415</ele>
        <time>2013-10-23T09:09:14Z</time>
      </trkpt>
      <trkpt lat="43.32117" lon="-0.59012">
        <ele>245.75415</ele>
        <time>2013-10-23T09:09:17Z</time>
      </trkpt>
      <trkpt lat="43.32137" lon="-0.59039">
        <ele>244.312256</ele>
        <time>2013-10-23T09:09:21Z</time>
      </trkpt>
      <trkpt lat="43.32161" lon="-0.59055">
        <ele>241.908936</ele>
        <time>2013-10-23T09:09:25Z</time>
      </trkpt>
      <trkpt lat="43.32231" lon="-0.59101">
        <ele>242.389648</ele>
        <time>2013-10-23T09:09:40Z</time>
      </trkpt>
      <trkpt lat="43.32268" lon="-0.59115">
        <ele>244.312256</ele>
        <time>2013-10-23T09:09:52Z</time>
      </trkpt>
      <trkpt lat="43.32276" lon="-0.59115">
        <ele>245.75415</ele>
        <time>2013-10-23T09:09:55Z</time>
      </trkpt>
      <trkpt lat="43.32294" lon="-0.59118">
        <ele>248.638184</ele>
        <time>2013-10-23T09:10:03Z</time>
      </trkpt>
      <trkpt lat="43.32308" lon="-0.59133">
        <ele>252.002808</ele>
        <time>2013-10-23T09:10:11Z</time>
      </trkpt>
      <trkpt lat="43.32328" lon="-0.59178">
        <ele>252.963989</ele>
        <time>2013-10-23T09:10:24Z</time>
      </trkpt>
      <trkpt lat="43.32353" lon="-0.59203">
        <ele>254.886597</ele>
        <time>2013-10-23T09:10:34Z</time>
      </trkpt>
      <trkpt lat="43.32377" lon="-0.59204">
        <ele>254.886597</ele>
        <time>2013-10-23T09:10:42Z</time>
      </trkpt>
      <trkpt lat="43.32395" lon="-0.59178">
        <ele>253.925415</ele>
        <time>2013-10-23T09:10:49Z</time>
      </trkpt>
      <trkpt lat="43.32412" lon="-0.5911">
        <ele>252.002808</ele>
        <time>2013-10-23T09:10:58Z</time>
      </trkpt>
      <trkpt lat="43.32423" lon="-0.59079">
        <ele>252.002808</ele>
        <time>2013-10-23T09:11:03Z</time>
      </trkpt>
      <trkpt lat="43.32431" lon="-0.5907">
        <ele>250.560791</ele>
        <time>2013-10-23T09:11:05Z</time>
      </trkpt>
      <trkpt lat="43.32444" lon="-0.59049">
        <ele>247.676758</ele>
        <time>2013-10-23T09:11:08Z</time>
      </trkpt>
      <trkpt lat="43.32461" lon="-0.59022">
        <ele>245.75415</ele>
        <time>2013-10-23T09:11:11Z</time>
      </trkpt>
      <trkpt lat="43.3247" lon="-0.59007">
        <ele>243.831543</ele>
        <time>2013-10-23T09:11:13Z</time>
      </trkpt>
      <trkpt lat="43.32478" lon="-0.58997">
        <ele>242.870239</ele>
        <time>2013-10-23T09:11:15Z</time>
      </trkpt>
      <trkpt lat="43.3249" lon="-0.58989">
        <ele>239.024902</ele>
        <time>2013-10-23T09:11:18Z</time>
      </trkpt>
      <trkpt lat="43.32496" lon="-0.58986">
        <ele>237.102295</ele>
        <time>2013-10-23T09:11:19Z</time>
      </trkpt>
      <trkpt lat="43.32508" lon="-0.58983">
        <ele>235.179688</ele>
        <time>2013-10-23T09:11:21Z</time>
      </trkpt>
      <trkpt lat="43.32534" lon="-0.58969">
        <ele>230.85376</ele>
        <time>2013-10-23T09:11:26Z</time>
      </trkpt>
      <trkpt lat="43.32548" lon="-0.58955">
        <ele>228.931152</ele>
        <time>2013-10-23T09:11:29Z</time>
      </trkpt>
      <trkpt lat="43.32552" lon="-0.58949">
        <ele>228.450439</ele>
        <time>2013-10-23T09:11:30Z</time>
      </trkpt>
      <trkpt lat="43.32559" lon="-0.58933">
        <ele>226.527832</ele>
        <time>2013-10-23T09:11:33Z</time>
      </trkpt>
      <trkpt lat="43.32567" lon="-0.58925">
        <ele>224.605225</ele>
        <time>2013-10-23T09:11:36Z</time>
      </trkpt>
      <trkpt lat="43.32593" lon="-0.58938">
        <ele>221.721191</ele>
        <time>2013-10-23T09:11:43Z</time>
      </trkpt>
      <trkpt lat="43.32615" lon="-0.58936">
        <ele>221.240601</ele>
        <time>2013-10-23T09:11:47Z</time>
      </trkpt>
      <trkpt lat="43.32676" lon="-0.58919">
        <ele>219.317993</ele>
        <time>2013-10-23T09:11:57Z</time>
      </trkpt>
      <trkpt lat="43.32742" lon="-0.58908">
        <ele>221.240601</ele>
        <time>2013-10-23T09:12:11Z</time>
      </trkpt>
      <trkpt lat="43.32809" lon="-0.58926">
        <ele>222.201782</ele>
        <time>2013-10-23T09:12:27Z</time>
      </trkpt>
      <trkpt lat="43.32867" lon="-0.58959">
        <ele>222.682495</ele>
        <time>2013-10-23T09:12:42Z</time>
      </trkpt>
      <trkpt lat="43.32909" lon="-0.58984">
        <ele>225.085938</ele>
        <time>2013-10-23T09:12:53Z</time>
      </trkpt>
      <trkpt lat="43.32942" lon="-0.59005">
        <ele>226.047119</ele>
        <time>2013-10-23T09:13:06Z</time>
      </trkpt>
      <trkpt lat="43.32965" lon="-0.59021">
        <ele>222.201782</ele>
        <time>2013-10-23T09:13:11Z</time>
      </trkpt>
      <trkpt lat="43.32971" lon="-0.59027">
        <ele>222.201782</ele>
        <time>2013-10-23T09:13:12Z</time>
      </trkpt>
      <trkpt lat="43.32982" lon="-0.59038">
        <ele>220.759888</ele>
        <time>2013-10-23T09:13:14Z</time>
      </trkpt>
      <trkpt lat="43.33012" lon="-0.59052">
        <ele>216.914673</ele>
        <time>2013-10-23T09:13:18Z</time>
      </trkpt>
      <trkpt lat="43.3304" lon="-0.59056">
        <ele>213.550049</ele>
        <time>2013-10-23T09:13:21Z</time>
      </trkpt>
      <trkpt lat="43.33076" lon="-0.59056">
        <ele>210.185425</ele>
        <time>2013-10-23T09:13:25Z</time>
      </trkpt>
      <trkpt lat="43.33083" lon="-0.59055">
        <ele>208.743408</ele>
        <time>2013-10-23T09:13:26Z</time>
      </trkpt>
      <trkpt lat="43.331" lon="-0.5905">
        <ele>206.820679</ele>
        <time>2013-10-23T09:13:29Z</time>
      </trkpt>
      <trkpt lat="43.33145" lon="-0.59074">
        <ele>209.224121</ele>
        <time>2013-10-23T09:13:40Z</time>
      </trkpt>
      <trkpt lat="43.33189" lon="-0.59108">
        <ele>211.146729</ele>
        <time>2013-10-23T09:13:53Z</time>
      </trkpt>
      <trkpt lat="43.3322" lon="-0.59128">
        <ele>212.588623</ele>
        <time>2013-10-23T09:14:02Z</time>
      </trkpt>
      <trkpt lat="43.33234" lon="-0.59142">
        <ele>212.108032</ele>
        <time>2013-10-23T09:14:06Z</time>
      </trkpt>
      <trkpt lat="43.33243" lon="-0.59148">
        <ele>212.108032</ele>
        <time>2013-10-23T09:14:08Z</time>
      </trkpt>
      <trkpt lat="43.33262" lon="-0.59162">
        <ele>211.146729</ele>
        <time>2013-10-23T09:14:12Z</time>
      </trkpt>
      <trkpt lat="43.3333" lon="-0.59229">
        <ele>213.069336</ele>
        <time>2013-10-23T09:14:28Z</time>
      </trkpt>
      <trkpt lat="43.3334" lon="-0.59239">
        <ele>213.069336</ele>
        <time>2013-10-23T09:14:31Z</time>
      </trkpt>
      <trkpt lat="43.33379" lon="-0.59284">
        <ele>213.069336</ele>
        <time>2013-10-23T09:14:43Z</time>
      </trkpt>
      <trkpt lat="43.3339" lon="-0.59301">
        <ele>213.550049</ele>
        <time>2013-10-23T09:14:47Z</time>
      </trkpt>
      <trkpt lat="43.33421" lon="-0.59379">
        <ele>215.472656</ele>
        <time>2013-10-23T09:15:03Z</time>
      </trkpt>
      <trkpt lat="43.3344" lon="-0.59427">
        <ele>213.550049</ele>
        <time>2013-10-23T09:15:13Z</time>
      </trkpt>
      <trkpt lat="43.33443" lon="-0.59433">
        <ele>213.069336</ele>
        <time>2013-10-23T09:15:14Z</time>
      </trkpt>
      <trkpt lat="43.33462" lon="-0.59464">
        <ele>212.108032</ele>
        <time>2013-10-23T09:15:19Z</time>
      </trkpt>
      <trkpt lat="43.3347" lon="-0.59484">
        <ele>211.146729</ele>
        <time>2013-10-23T09:15:22Z</time>
      </trkpt>
      <trkpt lat="43.33517" lon="-0.59547">
        <ele>209.704834</ele>
        <time>2013-10-23T09:15:35Z</time>
      </trkpt>
      <trkpt lat="43.33548" lon="-0.59573">
        <ele>206.820679</ele>
        <time>2013-10-23T09:15:42Z</time>
      </trkpt>
      <trkpt lat="43.33571" lon="-0.59562">
        <ele>205.859497</ele>
        <time>2013-10-23T09:15:47Z</time>
      </trkpt>
      <trkpt lat="43.33592" lon="-0.5955">
        <ele>203.93689</ele>
        <time>2013-10-23T09:15:50Z</time>
      </trkpt>
      <trkpt lat="43.33626" lon="-0.59529">
        <ele>200.091675</ele>
        <time>2013-10-23T09:15:54Z</time>
      </trkpt>
      <trkpt lat="43.33647" lon="-0.59503">
        <ele>196.246338</ele>
        <time>2013-10-23T09:15:57Z</time>
      </trkpt>
      <trkpt lat="43.33653" lon="-0.59492">
        <ele>192.881714</ele>
        <time>2013-10-23T09:15:58Z</time>
      </trkpt>
      <trkpt lat="43.33678" lon="-0.59437">
        <ele>187.59436</ele>
        <time>2013-10-23T09:16:02Z</time>
      </trkpt>
      <trkpt lat="43.33686" lon="-0.59423">
        <ele>185.191162</ele>
        <time>2013-10-23T09:16:03Z</time>
      </trkpt>
      <trkpt lat="43.33729" lon="-0.59383">
        <ele>181.345825</ele>
        <time>2013-10-23T09:16:07Z</time>
      </trkpt>
      <trkpt lat="43.33767" lon="-0.59361">
        <ele>176.539307</ele>
        <time>2013-10-23T09:16:10Z</time>
      </trkpt>
      <trkpt lat="43.33832" lon="-0.59316">
        <ele>173.174683</ele>
        <time>2013-10-23T09:16:16Z</time>
      </trkpt>
      <trkpt lat="43.33839" lon="-0.59311">
        <ele>172.213257</ele>
        <time>2013-10-23T09:16:17Z</time>
      </trkpt>
      <trkpt lat="43.33869" lon="-0.59325">
        <ele>171.732666</ele>
        <time>2013-10-23T09:16:24Z</time>
      </trkpt>
      <trkpt lat="43.33869" lon="-0.59336">
        <ele>172.213257</ele>
        <time>2013-10-23T09:16:26Z</time>
      </trkpt>
      <trkpt lat="43.33872" lon="-0.59381">
        <ele>176.058594</ele>
        <time>2013-10-23T09:16:38Z</time>
      </trkpt>
      <trkpt lat="43.33895" lon="-0.59418">
        <ele>178.461914</ele>
        <time>2013-10-23T09:16:52Z</time>
      </trkpt>
      <trkpt lat="43.33947" lon="-0.59422">
        <ele>181.826416</ele>
        <time>2013-10-23T09:17:10Z</time>
      </trkpt>
      <trkpt lat="43.34005" lon="-0.59424">
        <ele>185.671753</ele>
        <time>2013-10-23T09:17:32Z</time>
      </trkpt>
      <trkpt lat="43.34044" lon="-0.59411">
        <ele>189.036377</ele>
        <time>2013-10-23T09:17:50Z</time>
      </trkpt>
      <trkpt lat="43.3406" lon="-0.59408">
        <ele>192.401123</ele>
        <time>2013-10-23T09:17:57Z</time>
      </trkpt>
      <trkpt lat="43.34064" lon="-0.59407">
        <ele>192.881714</ele>
        <time>2013-10-23T09:17:59Z</time>
      </trkpt>
      <trkpt lat="43.34074" lon="-0.59405">
        <ele>195.284912</ele>
        <time>2013-10-23T09:18:04Z</time>
      </trkpt>
      <trkpt lat="43.34115" lon="-0.59408">
        <ele>197.20752</ele>
        <time>2013-10-23T09:18:23Z</time>
      </trkpt>
      <trkpt lat="43.34144" lon="-0.59446">
        <ele>196.246338</ele>
        <time>2013-10-23T09:18:36Z</time>
      </trkpt>
      <trkpt lat="43.3416" lon="-0.59466">
        <ele>195.284912</ele>
        <time>2013-10-23T09:18:42Z</time>
      </trkpt>
      <trkpt lat="43.3418" lon="-0.59485">
        <ele>193.362305</ele>
        <time>2013-10-23T09:18:47Z</time>
      </trkpt>
      <trkpt lat="43.34197" lon="-0.59497">
        <ele>190.958984</ele>
        <time>2013-10-23T09:18:50Z</time>
      </trkpt>
      <trkpt lat="43.34225" lon="-0.59501">
        <ele>189.036377</ele>
        <time>2013-10-23T09:18:55Z</time>
      </trkpt>
      <trkpt lat="43.34264" lon="-0.59495">
        <ele>189.036377</ele>
        <time>2013-10-23T09:19:01Z</time>
      </trkpt>
      <trkpt lat="43.34287" lon="-0.59488">
        <ele>189.036377</ele>
        <time>2013-10-23T09:19:06Z</time>
      </trkpt>
      <trkpt lat="43.34311" lon="-0.59485">
        <ele>186.633179</ele>
        <time>2013-10-23T09:19:10Z</time>
      </trkpt>
      <trkpt lat="43.34331" lon="-0.59488">
        <ele>185.671753</ele>
        <time>2013-10-23T09:19:13Z</time>
      </trkpt>
      <trkpt lat="43.34396" lon="-0.59505">
        <ele>186.152466</ele>
        <time>2013-10-23T09:19:24Z</time>
      </trkpt>
      <trkpt lat="43.34401" lon="-0.59506">
        <ele>186.152466</ele>
        <time>2013-10-23T09:19:25Z</time>
      </trkpt>
      <trkpt lat="43.34419" lon="-0.59512">
        <ele>186.152466</ele>
        <time>2013-10-23T09:19:29Z</time>
      </trkpt>
      <trkpt lat="43.34437" lon="-0.5952">
        <ele>184.710571</ele>
        <time>2013-10-23T09:19:33Z</time>
      </trkpt>
      <trkpt lat="43.34442" lon="-0.59523">
        <ele>185.191162</ele>
        <time>2013-10-23T09:19:34Z</time>
      </trkpt>
      <trkpt lat="43.3446" lon="-0.59527">
        <ele>184.229858</ele>
        <time>2013-10-23T09:19:37Z</time>
      </trkpt>
      <trkpt lat="43.34483" lon="-0.59536">
        <ele>183.749023</ele>
        <time>2013-10-23T09:19:41Z</time>
      </trkpt>
      <trkpt lat="43.34496" lon="-0.59546">
        <ele>183.749023</ele>
        <time>2013-10-23T09:19:44Z</time>
      </trkpt>
      <trkpt lat="43.34508" lon="-0.59558">
        <ele>182.787842</ele>
        <time>2013-10-23T09:19:47Z</time>
      </trkpt>
      <trkpt lat="43.34543" lon="-0.59564">
        <ele>180.865234</ele>
        <time>2013-10-23T09:19:53Z</time>
      </trkpt>
      <trkpt lat="43.34575" lon="-0.59557">
        <ele>179.423218</ele>
        <time>2013-10-23T09:19:58Z</time>
      </trkpt>
      <trkpt lat="43.34609" lon="-0.59551">
        <ele>176.539307</ele>
        <time>2013-10-23T09:20:03Z</time>
      </trkpt>
      <trkpt lat="43.34623" lon="-0.59562">
        <ele>175.577881</ele>
        <time>2013-10-23T09:20:05Z</time>
      </trkpt>
      <trkpt lat="43.34673" lon="-0.59614">
        <ele>174.616577</ele>
        <time>2013-10-23T09:20:14Z</time>
      </trkpt>
      <trkpt lat="43.34695" lon="-0.59624">
        <ele>175.09729</ele>
        <time>2013-10-23T09:20:18Z</time>
      </trkpt>
      <trkpt lat="43.34718" lon="-0.59624">
        <ele>174.616577</ele>
        <time>2013-10-23T09:20:22Z</time>
      </trkpt>
      <trkpt lat="43.34733" lon="-0.59618">
        <ele>172.69397</ele>
        <time>2013-10-23T09:20:26Z</time>
      </trkpt>
      <trkpt lat="43.34757" lon="-0.59623">
        <ele>173.174683</ele>
        <time>2013-10-23T09:20:31Z</time>
      </trkpt>
      <trkpt lat="43.34771" lon="-0.59645">
        <ele>173.174683</ele>
        <time>2013-10-23T09:20:34Z</time>
      </trkpt>
      <trkpt lat="43.34797" lon="-0.59658">
        <ele>173.655273</ele>
        <time>2013-10-23T09:20:38Z</time>
      </trkpt>
      <trkpt lat="43.34878" lon="-0.59695">
        <ele>175.577881</ele>
        <time>2013-10-23T09:20:53Z</time>
      </trkpt>
      <trkpt lat="43.34943" lon="-0.59716">
        <ele>172.213257</ele>
        <time>2013-10-23T09:21:03Z</time>
      </trkpt>
      <trkpt lat="43.34957" lon="-0.59723">
        <ele>171.252075</ele>
        <time>2013-10-23T09:21:05Z</time>
      </trkpt>
      <trkpt lat="43.35043" lon="-0.5974">
        <ele>170.290649</ele>
        <time>2013-10-23T09:21:18Z</time>
      </trkpt>
      <trkpt lat="43.35098" lon="-0.59752">
        <ele>169.329468</ele>
        <time>2013-10-23T09:21:27Z</time>
      </trkpt>
      <trkpt lat="43.35188" lon="-0.59795">
        <ele>169.329468</ele>
        <time>2013-10-23T09:21:42Z</time>
      </trkpt>
      <trkpt lat="43.35273" lon="-0.59835">
        <ele>171.252075</ele>
        <time>2013-10-23T09:21:58Z</time>
      </trkpt>
      <trkpt lat="43.35333" lon="-0.5985">
        <ele>173.655273</ele>
        <time>2013-10-23T09:22:11Z</time>
      </trkpt>
      <trkpt lat="43.35365" lon="-0.59857">
        <ele>174.616577</ele>
        <time>2013-10-23T09:22:25Z</time>
      </trkpt>
      <trkpt lat="43.35409" lon="-0.5987">
        <ele>173.174683</ele>
        <time>2013-10-23T09:22:37Z</time>
      </trkpt>
      <trkpt lat="43.35428" lon="-0.59887">
        <ele>171.252075</ele>
        <time>2013-10-23T09:22:41Z</time>
      </trkpt>
      <trkpt lat="43.35448" lon="-0.59896">
        <ele>169.810059</ele>
        <time>2013-10-23T09:22:45Z</time>
      </trkpt>
      <trkpt lat="43.35462" lon="-0.5991">
        <ele>167.887329</ele>
        <time>2013-10-23T09:22:48Z</time>
      </trkpt>
      <trkpt lat="43.3547" lon="-0.59923">
        <ele>168.848755</ele>
        <time>2013-10-23T09:22:50Z</time>
      </trkpt>
      <trkpt lat="43.35494" lon="-0.59972">
        <ele>170.290649</ele>
        <time>2013-10-23T09:23:03Z</time>
      </trkpt>
      <trkpt lat="43.35504" lon="-0.59984">
        <ele>168.848755</ele>
        <time>2013-10-23T09:23:07Z</time>
      </trkpt>
      <trkpt lat="43.35528" lon="-0.59998">
        <ele>165.003418</ele>
        <time>2013-10-23T09:23:13Z</time>
      </trkpt>
      <trkpt lat="43.35532" lon="-0.6">
        <ele>165.003418</ele>
        <time>2013-10-23T09:23:14Z</time>
      </trkpt>
      <trkpt lat="43.35541" lon="-0.60015">
        <ele>161.158203</ele>
        <time>2013-10-23T09:23:18Z</time>
      </trkpt>
      <trkpt lat="43.35534" lon="-0.60045">
        <ele>159.716187</ele>
        <time>2013-10-23T09:23:22Z</time>
      </trkpt>
      <trkpt lat="43.35538" lon="-0.60084">
        <ele>156.832153</ele>
        <time>2013-10-23T09:23:29Z</time>
      </trkpt>
      <trkpt lat="43.35539" lon="-0.60092">
        <ele>155.390259</ele>
        <time>2013-10-23T09:23:30Z</time>
      </trkpt>
      <trkpt lat="43.3554" lon="-0.60119">
        <ele>151.544922</ele>
        <time>2013-10-23T09:23:33Z</time>
      </trkpt>
      <trkpt lat="43.35541" lon="-0.60127">
        <ele>151.544922</ele>
        <time>2013-10-23T09:23:34Z</time>
      </trkpt>
      <trkpt lat="43.35552" lon="-0.60151">
        <ele>148.18042</ele>
        <time>2013-10-23T09:23:38Z</time>
      </trkpt>
      <trkpt lat="43.35575" lon="-0.60174">
        <ele>146.257813</ele>
        <time>2013-10-23T09:23:42Z</time>
      </trkpt>
      <trkpt lat="43.35595" lon="-0.60188">
        <ele>147.699707</ele>
        <time>2013-10-23T09:23:47Z</time>
      </trkpt>
      <trkpt lat="43.3561" lon="-0.60199">
        <ele>151.544922</ele>
        <time>2013-10-23T09:23:56Z</time>
      </trkpt>
      <trkpt lat="43.35625" lon="-0.60207">
        <ele>154.428955</ele>
        <time>2013-10-23T09:24:06Z</time>
      </trkpt>
      <trkpt lat="43.35627" lon="-0.60201">
        <ele>154.909546</ele>
        <time>2013-10-23T09:24:10Z</time>
      </trkpt>
      <trkpt lat="43.3563" lon="-0.60196">
        <ele>155.390259</ele>
        <time>2013-10-23T09:24:14Z</time>
      </trkpt>
      <trkpt lat="43.35632" lon="-0.60204">
        <ele>155.870972</ele>
        <time>2013-10-23T09:24:18Z</time>
      </trkpt>
      <trkpt lat="43.35635" lon="-0.6021">
        <ele>156.351563</ele>
        <time>2013-10-23T09:24:21Z</time>
      </trkpt>
      <trkpt lat="43.35646" lon="-0.60222">
        <ele>160.196899</ele>
        <time>2013-10-23T09:24:30Z</time>
      </trkpt>
      <trkpt lat="43.35649" lon="-0.60225">
        <ele>160.67749</ele>
        <time>2013-10-23T09:24:32Z</time>
      </trkpt>
      <trkpt lat="43.35662" lon="-0.60235">
        <ele>164.042114</ele>
        <time>2013-10-23T09:24:43Z</time>
      </trkpt>
      <trkpt lat="43.35688" lon="-0.60235">
        <ele>166.926025</ele>
        <time>2013-10-23T09:24:59Z</time>
      </trkpt>
      <trkpt lat="43.3571" lon="-0.60246">
        <ele>169.329468</ele>
        <time>2013-10-23T09:25:12Z</time>
      </trkpt>
      <trkpt lat="43.35732" lon="-0.60266">
        <ele>172.213257</ele>
        <time>2013-10-23T09:25:27Z</time>
      </trkpt>
      <trkpt lat="43.35735" lon="-0.60272">
        <ele>172.69397</ele>
        <time>2013-10-23T09:25:30Z</time>
      </trkpt>
      <trkpt lat="43.35743" lon="-0.60302">
        <ele>173.655273</ele>
        <time>2013-10-23T09:25:45Z</time>
      </trkpt>
      <trkpt lat="43.35755" lon="-0.60319">
        <ele>173.655273</ele>
        <time>2013-10-23T09:25:52Z</time>
      </trkpt>
      <trkpt lat="43.35781" lon="-0.6033">
        <ele>172.213257</ele>
        <time>2013-10-23T09:25:57Z</time>
      </trkpt>
      <trkpt lat="43.35801" lon="-0.6034">
        <ele>170.290649</ele>
        <time>2013-10-23T09:26:00Z</time>
      </trkpt>
      <trkpt lat="43.35807" lon="-0.60345">
        <ele>169.329468</ele>
        <time>2013-10-23T09:26:01Z</time>
      </trkpt>
      <trkpt lat="43.35844" lon="-0.60378">
        <ele>167.887329</ele>
        <time>2013-10-23T09:26:07Z</time>
      </trkpt>
      <trkpt lat="43.35864" lon="-0.60394">
        <ele>166.926025</ele>
        <time>2013-10-23T09:26:11Z</time>
      </trkpt>
      <trkpt lat="43.35869" lon="-0.60396">
        <ele>166.445313</ele>
        <time>2013-10-23T09:26:12Z</time>
      </trkpt>
      <trkpt lat="43.35879" lon="-0.60397">
        <ele>165.484131</ele>
        <time>2013-10-23T09:26:14Z</time>
      </trkpt>
      <trkpt lat="43.35903" lon="-0.60405">
        <ele>163.561523</ele>
        <time>2013-10-23T09:26:19Z</time>
      </trkpt>
      <trkpt lat="43.35921" lon="-0.60408">
        <ele>160.196899</ele>
        <time>2013-10-23T09:26:23Z</time>
      </trkpt>
      <trkpt lat="43.35936" lon="-0.60407">
        <ele>156.832153</ele>
        <time>2013-10-23T09:26:27Z</time>
      </trkpt>
      <trkpt lat="43.35946" lon="-0.6041">
        <ele>153.467651</ele>
        <time>2013-10-23T09:26:30Z</time>
      </trkpt>
      <trkpt lat="43.35957" lon="-0.60413">
        <ele>150.583618</ele>
        <time>2013-10-23T09:26:33Z</time>
      </trkpt>
      <trkpt lat="43.35967" lon="-0.60417">
        <ele>149.141602</ele>
        <time>2013-10-23T09:26:35Z</time>
      </trkpt>
      <trkpt lat="43.35981" lon="-0.60422">
        <ele>147.699707</ele>
        <time>2013-10-23T09:26:37Z</time>
      </trkpt>
      <trkpt lat="43.35983" lon="-0.60446">
        <ele>145.296387</ele>
        <time>2013-10-23T09:26:41Z</time>
      </trkpt>
      <trkpt lat="43.35984" lon="-0.6046">
        <ele>143.373657</ele>
        <time>2013-10-23T09:26:43Z</time>
      </trkpt>
      <trkpt lat="43.35982" lon="-0.60497">
        <ele>139.047852</ele>
        <time>2013-10-23T09:26:48Z</time>
      </trkpt>
      <trkpt lat="43.35963" lon="-0.60528">
        <ele>137.125244</ele>
        <time>2013-10-23T09:26:52Z</time>
      </trkpt>
      <trkpt lat="43.35925" lon="-0.60566">
        <ele>134.721924</ele>
        <time>2013-10-23T09:26:58Z</time>
      </trkpt>
      <trkpt lat="43.35907" lon="-0.60586">
        <ele>134.241211</ele>
        <time>2013-10-23T09:27:01Z</time>
      </trkpt>
      <trkpt lat="43.35897" lon="-0.60599">
        <ele>134.241211</ele>
        <time>2013-10-23T09:27:03Z</time>
      </trkpt>
      <trkpt lat="43.35869" lon="-0.60628">
        <ele>130.876709</ele>
        <time>2013-10-23T09:27:11Z</time>
      </trkpt>
      <trkpt lat="43.35863" lon="-0.60652">
        <ele>128.473389</ele>
        <time>2013-10-23T09:27:14Z</time>
      </trkpt>
      <trkpt lat="43.35857" lon="-0.60678">
        <ele>124.147339</ele>
        <time>2013-10-23T09:27:17Z</time>
      </trkpt>
      <trkpt lat="43.35848" lon="-0.60701">
        <ele>120.302124</ele>
        <time>2013-10-23T09:27:24Z</time>
      </trkpt>
      <trkpt lat="43.35854" lon="-0.60705">
        <ele>121.26355</ele>
        <time>2013-10-23T09:27:26Z</time>
      </trkpt>
      <trkpt lat="43.3591" lon="-0.60741">
        <ele>120.302124</ele>
        <time>2013-10-23T09:27:42Z</time>
      </trkpt>
      <trkpt lat="43.35945" lon="-0.60754">
        <ele>119.821411</ele>
        <time>2013-10-23T09:27:50Z</time>
      </trkpt>
      <trkpt lat="43.35953" lon="-0.60791">
        <ele>116.9375</ele>
        <time>2013-10-23T09:27:58Z</time>
      </trkpt>
      <trkpt lat="43.35951" lon="-0.60796">
        <ele>117.898804</ele>
        <time>2013-10-23T09:27:59Z</time>
      </trkpt>
      <trkpt lat="43.35947" lon="-0.60805">
        <ele>117.418213</ele>
        <time>2013-10-23T09:28:01Z</time>
      </trkpt>
      <trkpt lat="43.35968" lon="-0.60834">
        <ele>117.418213</ele>
        <time>2013-10-23T09:28:09Z</time>
      </trkpt>
      <trkpt lat="43.35973" lon="-0.60842">
        <ele>117.418213</ele>
        <time>2013-10-23T09:28:11Z</time>
      </trkpt>
      <trkpt lat="43.36005" lon="-0.60864">
        <ele>118.379395</ele>
        <time>2013-10-23T09:28:21Z</time>
      </trkpt>
      <trkpt lat="43.36007" lon="-0.60866">
        <ele>118.860107</ele>
        <time>2013-10-23T09:28:22Z</time>
      </trkpt>
      <trkpt lat="43.36051" lon="-0.60849">
        <ele>118.860107</ele>
        <time>2013-10-23T09:28:34Z</time>
      </trkpt>
      <trkpt lat="43.36127" lon="-0.60823">
        <ele>117.898804</ele>
        <time>2013-10-23T09:28:50Z</time>
      </trkpt>
      <trkpt lat="43.36151" lon="-0.60841">
        <ele>117.898804</ele>
        <time>2013-10-23T09:28:57Z</time>
      </trkpt>
      <trkpt lat="43.36198" lon="-0.60954">
        <ele>118.379395</ele>
        <time>2013-10-23T09:29:15Z</time>
      </trkpt>
      <trkpt lat="43.36205" lon="-0.61068">
        <ele>116.9375</ele>
        <time>2013-10-23T09:29:30Z</time>
      </trkpt>
      <trkpt lat="43.36208" lon="-0.61176">
        <ele>116.456787</ele>
        <time>2013-10-23T09:29:44Z</time>
      </trkpt>
      <trkpt lat="43.36211" lon="-0.61225">
        <ele>117.898804</ele>
        <time>2013-10-23T09:29:51Z</time>
      </trkpt>
      <trkpt lat="43.36217" lon="-0.61242">
        <ele>117.418213</ele>
        <time>2013-10-23T09:29:54Z</time>
      </trkpt>
      <trkpt lat="43.36229" lon="-0.61277">
        <ele>117.898804</ele>
        <time>2013-10-23T09:30:00Z</time>
      </trkpt>
      <trkpt lat="43.36234" lon="-0.61288">
        <ele>117.418213</ele>
        <time>2013-10-23T09:30:02Z</time>
      </trkpt>
      <trkpt lat="43.36247" lon="-0.61335">
        <ele>116.9375</ele>
        <time>2013-10-23T09:30:09Z</time>
      </trkpt>
      <trkpt lat="43.36254" lon="-0.61385">
        <ele>116.9375</ele>
        <time>2013-10-23T09:30:16Z</time>
      </trkpt>
      <trkpt lat="43.36264" lon="-0.61402">
        <ele>116.9375</ele>
        <time>2013-10-23T09:30:19Z</time>
      </trkpt>
      <trkpt lat="43.36273" lon="-0.61411">
        <ele>116.9375</ele>
        <time>2013-10-23T09:30:21Z</time>
      </trkpt>
      <trkpt lat="43.36285" lon="-0.6143">
        <ele>117.418213</ele>
        <time>2013-10-23T09:30:25Z</time>
      </trkpt>
      <trkpt lat="43.36294" lon="-0.61463">
        <ele>116.456787</ele>
        <time>2013-10-23T09:30:30Z</time>
      </trkpt>
      <trkpt lat="43.36313" lon="-0.6149">
        <ele>116.456787</ele>
        <time>2013-10-23T09:30:35Z</time>
      </trkpt>
      <trkpt lat="43.36335" lon="-0.61505">
        <ele>116.456787</ele>
        <time>2013-10-23T09:30:40Z</time>
      </trkpt>
      <trkpt lat="43.36359" lon="-0.61514">
        <ele>116.9375</ele>
        <time>2013-10-23T09:30:46Z</time>
      </trkpt>
      <trkpt lat="43.36385" lon="-0.61518">
        <ele>117.418213</ele>
        <time>2013-10-23T09:30:52Z</time>
      </trkpt>
      <trkpt lat="43.36412" lon="-0.61538">
        <ele>116.9375</ele>
        <time>2013-10-23T09:30:59Z</time>
      </trkpt>
      <trkpt lat="43.36427" lon="-0.61547">
        <ele>117.418213</ele>
        <time>2013-10-23T09:31:02Z</time>
      </trkpt>
      <trkpt lat="43.3645" lon="-0.61563">
        <ele>116.9375</ele>
        <time>2013-10-23T09:31:07Z</time>
      </trkpt>
      <trkpt lat="43.36483" lon="-0.61573">
        <ele>118.860107</ele>
        <time>2013-10-23T09:31:18Z</time>
      </trkpt>
      <trkpt lat="43.36496" lon="-0.61584">
        <ele>118.379395</ele>
        <time>2013-10-23T09:31:22Z</time>
      </trkpt>
      <trkpt lat="43.36509" lon="-0.61595">
        <ele>116.9375</ele>
        <time>2013-10-23T09:31:25Z</time>
      </trkpt>
      <trkpt lat="43.36532" lon="-0.61603">
        <ele>116.9375</ele>
        <time>2013-10-23T09:31:29Z</time>
      </trkpt>
      <trkpt lat="43.36541" lon="-0.61603">
        <ele>116.9375</ele>
        <time>2013-10-23T09:31:31Z</time>
      </trkpt>
      <trkpt lat="43.36588" lon="-0.61601">
        <ele>116.9375</ele>
        <time>2013-10-23T09:31:43Z</time>
      </trkpt>
      <trkpt lat="43.36648" lon="-0.61605">
        <ele>116.9375</ele>
        <time>2013-10-23T09:31:57Z</time>
      </trkpt>
      <trkpt lat="43.36673" lon="-0.61609">
        <ele>115.976196</ele>
        <time>2013-10-23T09:32:02Z</time>
      </trkpt>
      <trkpt lat="43.36689" lon="-0.61605">
        <ele>115.495605</ele>
        <time>2013-10-23T09:32:05Z</time>
      </trkpt>
      <trkpt lat="43.36704" lon="-0.61591">
        <ele>116.9375</ele>
        <time>2013-10-23T09:32:10Z</time>
      </trkpt>
      <trkpt lat="43.36727" lon="-0.6155">
        <ele>117.898804</ele>
        <time>2013-10-23T09:32:21Z</time>
      </trkpt>
      <trkpt lat="43.3673" lon="-0.61516">
        <ele>120.782837</ele>
        <time>2013-10-23T09:32:31Z</time>
      </trkpt>
      <trkpt lat="43.36732" lon="-0.61484">
        <ele>123.186157</ele>
        <time>2013-10-23T09:32:40Z</time>
      </trkpt>
      <trkpt lat="43.36733" lon="-0.61481">
        <ele>123.666748</ele>
        <time>2013-10-23T09:32:41Z</time>
      </trkpt>
      <trkpt lat="43.36732" lon="-0.61472">
        <ele>124.628052</ele>
        <time>2013-10-23T09:32:44Z</time>
      </trkpt>
      <trkpt lat="43.36733" lon="-0.61462">
        <ele>124.628052</ele>
        <time>2013-10-23T09:32:48Z</time>
      </trkpt>
      <trkpt lat="43.36739" lon="-0.61433">
        <ele>127.992554</ele>
        <time>2013-10-23T09:32:59Z</time>
      </trkpt>
      <trkpt lat="43.36739" lon="-0.61425">
        <ele>129.434692</ele>
        <time>2013-10-23T09:33:02Z</time>
      </trkpt>
      <trkpt lat="43.36743" lon="-0.61416">
        <ele>130.876709</ele>
        <time>2013-10-23T09:33:06Z</time>
      </trkpt>
      <trkpt lat="43.36753" lon="-0.61395">
        <ele>132.799316</ele>
        <time>2013-10-23T09:33:16Z</time>
      </trkpt>
      <trkpt lat="43.36761" lon="-0.6138">
        <ele>134.241211</ele>
        <time>2013-10-23T09:33:22Z</time>
      </trkpt>
      <trkpt lat="43.36785" lon="-0.61381">
        <ele>135.202515</ele>
        <time>2013-10-23T09:33:31Z</time>
      </trkpt>
      <trkpt lat="43.3679" lon="-0.61383">
        <ele>135.202515</ele>
        <time>2013-10-23T09:33:33Z</time>
      </trkpt>
      <trkpt lat="43.36809" lon="-0.61394">
        <ele>137.125244</ele>
        <time>2013-10-23T09:33:43Z</time>
      </trkpt>
      <trkpt lat="43.36832" lon="-0.61391">
        <ele>140.009155</ele>
        <time>2013-10-23T09:33:56Z</time>
      </trkpt>
      <trkpt lat="43.36843" lon="-0.61392">
        <ele>140.489868</ele>
        <time>2013-10-23T09:34:01Z</time>
      </trkpt>
      <trkpt lat="43.36845" lon="-0.61396">
        <ele>140.970459</ele>
        <time>2013-10-23T09:34:03Z</time>
      </trkpt>
      <trkpt lat="43.36858" lon="-0.61403">
        <ele>142.893066</ele>
        <time>2013-10-23T09:34:13Z</time>
      </trkpt>
      <trkpt lat="43.3687" lon="-0.61413">
        <ele>145.296387</ele>
        <time>2013-10-23T09:34:21Z</time>
      </trkpt>
      <trkpt lat="43.36887" lon="-0.61428">
        <ele>147.218994</ele>
        <time>2013-10-23T09:34:32Z</time>
      </trkpt>
      <trkpt lat="43.36893" lon="-0.61433">
        <ele>147.699707</ele>
        <time>2013-10-23T09:34:35Z</time>
      </trkpt>
      <trkpt lat="43.36896" lon="-0.61441">
        <ele>148.661011</ele>
        <time>2013-10-23T09:34:39Z</time>
      </trkpt>
      <trkpt lat="43.36898" lon="-0.61448">
        <ele>148.661011</ele>
        <time>2013-10-23T09:34:42Z</time>
      </trkpt>
      <trkpt lat="43.36906" lon="-0.61456">
        <ele>148.661011</ele>
        <time>2013-10-23T09:34:46Z</time>
      </trkpt>
      <trkpt lat="43.36919" lon="-0.61446">
        <ele>149.141602</ele>
        <time>2013-10-23T09:34:57Z</time>
      </trkpt>
      <trkpt lat="43.36928" lon="-0.61437">
        <ele>150.583618</ele>
        <time>2013-10-23T09:35:01Z</time>
      </trkpt>
      <trkpt lat="43.36957" lon="-0.6144">
        <ele>152.506348</ele>
        <time>2013-10-23T09:35:12Z</time>
      </trkpt>
      <trkpt lat="43.36995" lon="-0.61445">
        <ele>152.506348</ele>
        <time>2013-10-23T09:35:24Z</time>
      </trkpt>
      <trkpt lat="43.37003" lon="-0.61449">
        <ele>152.025757</ele>
        <time>2013-10-23T09:35:26Z</time>
      </trkpt>
      <trkpt lat="43.37013" lon="-0.61455">
        <ele>150.583618</ele>
        <time>2013-10-23T09:35:28Z</time>
      </trkpt>
      <trkpt lat="43.37018" lon="-0.61458">
        <ele>150.103027</ele>
        <time>2013-10-23T09:35:29Z</time>
      </trkpt>
      <trkpt lat="43.37054" lon="-0.61473">
        <ele>146.738403</ele>
        <time>2013-10-23T09:35:36Z</time>
      </trkpt>
      <trkpt lat="43.37081" lon="-0.61474">
        <ele>143.373657</ele>
        <time>2013-10-23T09:35:41Z</time>
      </trkpt>
      <trkpt lat="43.37093" lon="-0.61474">
        <ele>142.412476</ele>
        <time>2013-10-23T09:35:43Z</time>
      </trkpt>
      <trkpt lat="43.37138" lon="-0.61493">
        <ele>139.047852</ele>
        <time>2013-10-23T09:35:51Z</time>
      </trkpt>
      <trkpt lat="43.37153" lon="-0.61496">
        <ele>137.125244</ele>
        <time>2013-10-23T09:35:54Z</time>
      </trkpt>
      <trkpt lat="43.37173" lon="-0.61496">
        <ele>135.202515</ele>
        <time>2013-10-23T09:35:58Z</time>
      </trkpt>
      <trkpt lat="43.37187" lon="-0.61501">
        <ele>131.3573</ele>
        <time>2013-10-23T09:36:02Z</time>
      </trkpt>
      <trkpt lat="43.37206" lon="-0.61506">
        <ele>129.434692</ele>
        <time>2013-10-23T09:36:05Z</time>
      </trkpt>
      <trkpt lat="43.37213" lon="-0.61507">
        <ele>128.954102</ele>
        <time>2013-10-23T09:36:06Z</time>
      </trkpt>
      <trkpt lat="43.3725" lon="-0.61516">
        <ele>124.628052</ele>
        <time>2013-10-23T09:36:11Z</time>
      </trkpt>
      <trkpt lat="43.37262" lon="-0.6152">
        <ele>122.705444</ele>
        <time>2013-10-23T09:36:13Z</time>
      </trkpt>
      <trkpt lat="43.37286" lon="-0.61539">
        <ele>121.744141</ele>
        <time>2013-10-23T09:36:17Z</time>
      </trkpt>
      <trkpt lat="43.37303" lon="-0.6156">
        <ele>120.302124</ele>
        <time>2013-10-23T09:36:20Z</time>
      </trkpt>
      <trkpt lat="43.3731" lon="-0.61576">
        <ele>119.821411</ele>
        <time>2013-10-23T09:36:22Z</time>
      </trkpt>
      <trkpt lat="43.37321" lon="-0.61608">
        <ele>117.898804</ele>
        <time>2013-10-23T09:36:26Z</time>
      </trkpt>
      <trkpt lat="43.37352" lon="-0.61639">
        <ele>116.9375</ele>
        <time>2013-10-23T09:36:34Z</time>
      </trkpt>
      <trkpt lat="43.37357" lon="-0.61635">
        <ele>116.456787</ele>
        <time>2013-10-23T09:36:35Z</time>
      </trkpt>
      <trkpt lat="43.37431" lon="-0.61548">
        <ele>115.014893</ele>
        <time>2013-10-23T09:36:52Z</time>
      </trkpt>
      <trkpt lat="43.37465" lon="-0.61471">
        <ele>115.495605</ele>
        <time>2013-10-23T09:37:05Z</time>
      </trkpt>
      <trkpt lat="43.37522" lon="-0.61326">
        <ele>114.053589</ele>
        <time>2013-10-23T09:37:28Z</time>
      </trkpt>
      <trkpt lat="43.37547" lon="-0.61237">
        <ele>114.53418</ele>
        <time>2013-10-23T09:37:41Z</time>
      </trkpt>
      <trkpt lat="43.37555" lon="-0.61212">
        <ele>115.014893</ele>
        <time>2013-10-23T09:37:46Z</time>
      </trkpt>
      <trkpt lat="43.37562" lon="-0.61168">
        <ele>115.495605</ele>
        <time>2013-10-23T09:37:55Z</time>
      </trkpt>
      <trkpt lat="43.37557" lon="-0.61161">
        <ele>115.495605</ele>
        <time>2013-10-23T09:37:57Z</time>
      </trkpt>
      <trkpt lat="43.37541" lon="-0.61131">
        <ele>115.495605</ele>
        <time>2013-10-23T09:38:04Z</time>
      </trkpt>
      <trkpt lat="43.37522" lon="-0.61132">
        <ele>115.014893</ele>
        <time>2013-10-23T09:38:08Z</time>
      </trkpt>
      <trkpt lat="43.37504" lon="-0.61139">
        <ele>115.014893</ele>
        <time>2013-10-23T09:38:12Z</time>
      </trkpt>
      <trkpt lat="43.37492" lon="-0.61147">
        <ele>115.014893</ele>
        <time>2013-10-23T09:38:15Z</time>
      </trkpt>
      <trkpt lat="43.37469" lon="-0.61149">
        <ele>115.014893</ele>
        <time>2013-10-23T09:38:20Z</time>
      </trkpt>
      <trkpt lat="43.37432" lon="-0.61135">
        <ele>115.014893</ele>
        <time>2013-10-23T09:38:28Z</time>
      </trkpt>
      <trkpt lat="43.37363" lon="-0.61116">
        <ele>115.495605</ele>
        <time>2013-10-23T09:38:43Z</time>
      </trkpt>
      <trkpt lat="43.37359" lon="-0.61114">
        <ele>115.014893</ele>
        <time>2013-10-23T09:38:44Z</time>
      </trkpt>
      <trkpt lat="43.37341" lon="-0.61104">
        <ele>115.495605</ele>
        <time>2013-10-23T09:38:48Z</time>
      </trkpt>
      <trkpt lat="43.37325" lon="-0.61086">
        <ele>115.014893</ele>
        <time>2013-10-23T09:38:52Z</time>
      </trkpt>
      <trkpt lat="43.37313" lon="-0.61063">
        <ele>115.014893</ele>
        <time>2013-10-23T09:38:56Z</time>
      </trkpt>
      <trkpt lat="43.37296" lon="-0.61049">
        <ele>115.014893</ele>
        <time>2013-10-23T09:39:00Z</time>
      </trkpt>
      <trkpt lat="43.37272" lon="-0.61044">
        <ele>115.495605</ele>
        <time>2013-10-23T09:39:05Z</time>
      </trkpt>
      <trkpt lat="43.37263" lon="-0.61045">
        <ele>115.495605</ele>
        <time>2013-10-23T09:39:07Z</time>
      </trkpt>
      <trkpt lat="43.37242" lon="-0.61036">
        <ele>115.495605</ele>
        <time>2013-10-23T09:39:12Z</time>
      </trkpt>
      <trkpt lat="43.37192" lon="-0.60996">
        <ele>115.976196</ele>
        <time>2013-10-23T09:39:24Z</time>
      </trkpt>
      <trkpt lat="43.37162" lon="-0.60965">
        <ele>116.456787</ele>
        <time>2013-10-23T09:39:32Z</time>
      </trkpt>
      <trkpt lat="43.37135" lon="-0.60939">
        <ele>115.976196</ele>
        <time>2013-10-23T09:39:39Z</time>
      </trkpt>
      <trkpt lat="43.37122" lon="-0.60923">
        <ele>116.456787</ele>
        <time>2013-10-23T09:39:43Z</time>
      </trkpt>
      <trkpt lat="43.37104" lon="-0.60903">
        <ele>116.456787</ele>
        <time>2013-10-23T09:39:48Z</time>
      </trkpt>
      <trkpt lat="43.3708" lon="-0.60883">
        <ele>116.456787</ele>
        <time>2013-10-23T09:39:54Z</time>
      </trkpt>
      <trkpt lat="43.37064" lon="-0.6087">
        <ele>116.456787</ele>
        <time>2013-10-23T09:39:58Z</time>
      </trkpt>
      <trkpt lat="43.37056" lon="-0.60862">
        <ele>116.9375</ele>
        <time>2013-10-23T09:40:00Z</time>
      </trkpt>
      <trkpt lat="43.37015" lon="-0.60824">
        <ele>116.456787</ele>
        <time>2013-10-23T09:40:13Z</time>
      </trkpt>
      <trkpt lat="43.36987" lon="-0.608">
        <ele>116.456787</ele>
        <time>2013-10-23T09:40:23Z</time>
      </trkpt>
      <trkpt lat="43.36954" lon="-0.60761">
        <ele>117.418213</ele>
        <time>2013-10-23T09:40:35Z</time>
      </trkpt>
      <trkpt lat="43.36924" lon="-0.60723">
        <ele>116.456787</ele>
        <time>2013-10-23T09:40:47Z</time>
      </trkpt>
      <trkpt lat="43.36937" lon="-0.6068">
        <ele>116.9375</ele>
        <time>2013-10-23T09:40:58Z</time>
      </trkpt>
      <trkpt lat="43.36968" lon="-0.60628">
        <ele>116.9375</ele>
        <time>2013-10-23T09:41:09Z</time>
      </trkpt>
      <trkpt lat="43.36957" lon="-0.6059">
        <ele>116.9375</ele>
        <time>2013-10-23T09:41:17Z</time>
      </trkpt>
      <trkpt lat="43.3693" lon="-0.60543">
        <ele>117.418213</ele>
        <time>2013-10-23T09:41:28Z</time>
      </trkpt>
      <trkpt lat="43.36921" lon="-0.60532">
        <ele>117.418213</ele>
        <time>2013-10-23T09:41:32Z</time>
      </trkpt>
      <trkpt lat="43.36916" lon="-0.60515">
        <ele>116.9375</ele>
        <time>2013-10-23T09:41:37Z</time>
      </trkpt>
      <trkpt lat="43.36884" lon="-0.60475">
        <ele>117.418213</ele>
        <time>2013-10-23T09:41:48Z</time>
      </trkpt>
      <trkpt lat="43.3686" lon="-0.60455">
        <ele>117.418213</ele>
        <time>2013-10-23T09:41:55Z</time>
      </trkpt>
      <trkpt lat="43.36854" lon="-0.60438">
        <ele>118.860107</ele>
        <time>2013-10-23T09:42:04Z</time>
      </trkpt>
      <trkpt lat="43.36851" lon="-0.6043">
        <ele>118.379395</ele>
        <time>2013-10-23T09:42:19Z</time>
      </trkpt>
      <trkpt lat="43.36839" lon="-0.60399">
        <ele>117.898804</ele>
        <time>2013-10-23T09:42:29Z</time>
      </trkpt>
      <trkpt lat="43.36805" lon="-0.6037">
        <ele>118.379395</ele>
        <time>2013-10-23T09:42:40Z</time>
      </trkpt>
      <trkpt lat="43.36758" lon="-0.60326">
        <ele>118.860107</ele>
        <time>2013-10-23T09:42:53Z</time>
      </trkpt>
      <trkpt lat="43.36741" lon="-0.60303">
        <ele>118.860107</ele>
        <time>2013-10-23T09:42:58Z</time>
      </trkpt>
      <trkpt lat="43.36689" lon="-0.60258">
        <ele>119.34082</ele>
        <time>2013-10-23T09:43:11Z</time>
      </trkpt>
      <trkpt lat="43.36674" lon="-0.6024">
        <ele>119.34082</ele>
        <time>2013-10-23T09:43:16Z</time>
      </trkpt>
      <trkpt lat="43.36667" lon="-0.60246">
        <ele>119.821411</ele>
        <time>2013-10-23T09:43:20Z</time>
      </trkpt>
      <trkpt lat="43.36656" lon="-0.60289">
        <ele>119.821411</ele>
        <time>2013-10-23T09:43:28Z</time>
      </trkpt>
      <trkpt lat="43.36654" lon="-0.603">
        <ele>119.821411</ele>
        <time>2013-10-23T09:43:30Z</time>
      </trkpt>
      <trkpt lat="43.3665" lon="-0.60319">
        <ele>120.302124</ele>
        <time>2013-10-23T09:43:33Z</time>
      </trkpt>
      <trkpt lat="43.36644" lon="-0.60344">
        <ele>119.34082</ele>
        <time>2013-10-23T09:43:37Z</time>
      </trkpt>
      <trkpt lat="43.36635" lon="-0.60376">
        <ele>119.34082</ele>
        <time>2013-10-23T09:43:42Z</time>
      </trkpt>
      <trkpt lat="43.36619" lon="-0.6041">
        <ele>119.821411</ele>
        <time>2013-10-23T09:43:48Z</time>
      </trkpt>
      <trkpt lat="43.36585" lon="-0.60409">
        <ele>119.821411</ele>
        <time>2013-10-23T09:43:55Z</time>
      </trkpt>
      <trkpt lat="43.36546" lon="-0.60374">
        <ele>119.34082</ele>
        <time>2013-10-23T09:44:04Z</time>
      </trkpt>
      <trkpt lat="43.36474" lon="-0.60299">
        <ele>119.821411</ele>
        <time>2013-10-23T09:44:22Z</time>
      </trkpt>
      <trkpt lat="43.36454" lon="-0.60282">
        <ele>120.302124</ele>
        <time>2013-10-23T09:44:27Z</time>
      </trkpt>
      <trkpt lat="43.36434" lon="-0.6026">
        <ele>119.821411</ele>
        <time>2013-10-23T09:44:32Z</time>
      </trkpt>
      <trkpt lat="43.36371" lon="-0.60152">
        <ele>120.782837</ele>
        <time>2013-10-23T09:44:50Z</time>
      </trkpt>
      <trkpt lat="43.36361" lon="-0.60133">
        <ele>120.782837</ele>
        <time>2013-10-23T09:44:53Z</time>
      </trkpt>
      <trkpt lat="43.3633" lon="-0.60116">
        <ele>120.302124</ele>
        <time>2013-10-23T09:44:59Z</time>
      </trkpt>
      <trkpt lat="43.36314" lon="-0.60117">
        <ele>120.302124</ele>
        <time>2013-10-23T09:45:02Z</time>
      </trkpt>
      <trkpt lat="43.36228" lon="-0.60091">
        <ele>121.26355</ele>
        <time>2013-10-23T09:45:18Z</time>
      </trkpt>
      <trkpt lat="43.36206" lon="-0.60091">
        <ele>121.26355</ele>
        <time>2013-10-23T09:45:22Z</time>
      </trkpt>
      <trkpt lat="43.36184" lon="-0.6008">
        <ele>121.26355</ele>
        <time>2013-10-23T09:45:26Z</time>
      </trkpt>
      <trkpt lat="43.36121" lon="-0.60018">
        <ele>121.26355</ele>
        <time>2013-10-23T09:45:40Z</time>
      </trkpt>
      <trkpt lat="43.36117" lon="-0.60014">
        <ele>121.26355</ele>
        <time>2013-10-23T09:45:41Z</time>
      </trkpt>
      <trkpt lat="43.36042" lon="-0.5991">
        <ele>121.744141</ele>
        <time>2013-10-23T09:46:01Z</time>
      </trkpt>
      <trkpt lat="43.35959" lon="-0.59796">
        <ele>121.744141</ele>
        <time>2013-10-23T09:46:22Z</time>
      </trkpt>
      <trkpt lat="43.35939" lon="-0.59769">
        <ele>122.224731</ele>
        <time>2013-10-23T09:46:27Z</time>
      </trkpt>
      <trkpt lat="43.35938" lon="-0.59733">
        <ele>121.744141</ele>
        <time>2013-10-23T09:46:32Z</time>
      </trkpt>
      <trkpt lat="43.35954" lon="-0.59691">
        <ele>121.744141</ele>
        <time>2013-10-23T09:46:38Z</time>
      </trkpt>
      <trkpt lat="43.35988" lon="-0.59641">
        <ele>122.224731</ele>
        <time>2013-10-23T09:46:47Z</time>
      </trkpt>
      <trkpt lat="43.35995" lon="-0.59628">
        <ele>122.224731</ele>
        <time>2013-10-23T09:46:49Z</time>
      </trkpt>
      <trkpt lat="43.36006" lon="-0.59591">
        <ele>123.186157</ele>
        <time>2013-10-23T09:46:54Z</time>
      </trkpt>
      <trkpt lat="43.36004" lon="-0.59526">
        <ele>123.186157</ele>
        <time>2013-10-23T09:47:04Z</time>
      </trkpt>
      <trkpt lat="43.3599" lon="-0.59523">
        <ele>122.224731</ele>
        <time>2013-10-23T09:47:08Z</time>
      </trkpt>
      <trkpt lat="43.35972" lon="-0.59515">
        <ele>121.744141</ele>
        <time>2013-10-23T09:47:12Z</time>
      </trkpt>
      <trkpt lat="43.3596" lon="-0.59507">
        <ele>122.705444</ele>
        <time>2013-10-23T09:47:15Z</time>
      </trkpt>
      <trkpt lat="43.35952" lon="-0.59499">
        <ele>121.744141</ele>
        <time>2013-10-23T09:47:17Z</time>
      </trkpt>
      <trkpt lat="43.35941" lon="-0.59487">
        <ele>122.224731</ele>
        <time>2013-10-23T09:47:20Z</time>
      </trkpt>
      <trkpt lat="43.35914" lon="-0.59465">
        <ele>123.186157</ele>
        <time>2013-10-23T09:47:26Z</time>
      </trkpt>
      <trkpt lat="43.359" lon="-0.59458">
        <ele>122.224731</ele>
        <time>2013-10-23T09:47:29Z</time>
      </trkpt>
      <trkpt lat="43.35877" lon="-0.59431">
        <ele>122.705444</ele>
        <time>2013-10-23T09:47:36Z</time>
      </trkpt>
      <trkpt lat="43.35866" lon="-0.59401">
        <ele>122.705444</ele>
        <time>2013-10-23T09:47:41Z</time>
      </trkpt>
      <trkpt lat="43.3584" lon="-0.59368">
        <ele>122.705444</ele>
        <time>2013-10-23T09:47:49Z</time>
      </trkpt>
      <trkpt lat="43.35831" lon="-0.59363">
        <ele>122.705444</ele>
        <time>2013-10-23T09:47:51Z</time>
      </trkpt>
      <trkpt lat="43.35813" lon="-0.59353">
        <ele>122.705444</ele>
        <time>2013-10-23T09:47:55Z</time>
      </trkpt>
      <trkpt lat="43.35804" lon="-0.59343">
        <ele>123.666748</ele>
        <time>2013-10-23T09:47:59Z</time>
      </trkpt>
      <trkpt lat="43.35799" lon="-0.59316">
        <ele>123.666748</ele>
        <time>2013-10-23T09:48:04Z</time>
      </trkpt>
      <trkpt lat="43.35798" lon="-0.59267">
        <ele>123.186157</ele>
        <time>2013-10-23T09:48:12Z</time>
      </trkpt>
      <trkpt lat="43.35788" lon="-0.59197">
        <ele>123.186157</ele>
        <time>2013-10-23T09:48:25Z</time>
      </trkpt>
      <trkpt lat="43.35784" lon="-0.59149">
        <ele>123.666748</ele>
        <time>2013-10-23T09:48:36Z</time>
      </trkpt>
      <trkpt lat="43.35782" lon="-0.59146">
        <ele>123.186157</ele>
        <time>2013-10-23T09:48:37Z</time>
      </trkpt>
      <trkpt lat="43.35766" lon="-0.59132">
        <ele>123.666748</ele>
        <time>2013-10-23T09:48:42Z</time>
      </trkpt>
      <trkpt lat="43.3576" lon="-0.59129">
        <ele>123.666748</ele>
        <time>2013-10-23T09:48:44Z</time>
      </trkpt>
      <trkpt lat="43.3575" lon="-0.59112">
        <ele>123.666748</ele>
        <time>2013-10-23T09:48:48Z</time>
      </trkpt>
      <trkpt lat="43.35743" lon="-0.59074">
        <ele>124.628052</ele>
        <time>2013-10-23T09:48:55Z</time>
      </trkpt>
      <trkpt lat="43.35742" lon="-0.59061">
        <ele>124.628052</ele>
        <time>2013-10-23T09:48:57Z</time>
      </trkpt>
      <trkpt lat="43.35739" lon="-0.59013">
        <ele>124.628052</ele>
        <time>2013-10-23T09:49:04Z</time>
      </trkpt>
      <trkpt lat="43.35718" lon="-0.58953">
        <ele>125.589355</ele>
        <time>2013-10-23T09:49:15Z</time>
      </trkpt>
      <trkpt lat="43.35669" lon="-0.58922">
        <ele>124.628052</ele>
        <time>2013-10-23T09:49:28Z</time>
      </trkpt>
      <trkpt lat="43.35642" lon="-0.58903">
        <ele>125.589355</ele>
        <time>2013-10-23T09:49:36Z</time>
      </trkpt>
      <trkpt lat="43.3561" lon="-0.58886">
        <ele>126.069946</ele>
        <time>2013-10-23T09:49:45Z</time>
      </trkpt>
      <trkpt lat="43.35603" lon="-0.58882">
        <ele>126.550659</ele>
        <time>2013-10-23T09:49:47Z</time>
      </trkpt>
      <trkpt lat="43.35593" lon="-0.58872">
        <ele>127.031372</ele>
        <time>2013-10-23T09:49:50Z</time>
      </trkpt>
      <trkpt lat="43.35586" lon="-0.58848">
        <ele>126.550659</ele>
        <time>2013-10-23T09:49:55Z</time>
      </trkpt>
      <trkpt lat="43.35574" lon="-0.5881">
        <ele>126.550659</ele>
        <time>2013-10-23T09:50:03Z</time>
      </trkpt>
      <trkpt lat="43.35564" lon="-0.58774">
        <ele>127.031372</ele>
        <time>2013-10-23T09:50:10Z</time>
      </trkpt>
      <trkpt lat="43.35563" lon="-0.58753">
        <ele>127.511963</ele>
        <time>2013-10-23T09:50:14Z</time>
      </trkpt>
      <trkpt lat="43.35561" lon="-0.58736">
        <ele>127.031372</ele>
        <time>2013-10-23T09:50:17Z</time>
      </trkpt>
      <trkpt lat="43.35555" lon="-0.58688">
        <ele>127.031372</ele>
        <time>2013-10-23T09:50:25Z</time>
      </trkpt>
      <trkpt lat="43.35552" lon="-0.58662">
        <ele>127.511963</ele>
        <time>2013-10-23T09:50:30Z</time>
      </trkpt>
      <trkpt lat="43.35549" lon="-0.58641">
        <ele>127.511963</ele>
        <time>2013-10-23T09:50:34Z</time>
      </trkpt>
      <trkpt lat="43.35548" lon="-0.5857">
        <ele>127.992554</ele>
        <time>2013-10-23T09:50:47Z</time>
      </trkpt>
      <trkpt lat="43.35561" lon="-0.58534">
        <ele>127.511963</ele>
        <time>2013-10-23T09:50:54Z</time>
      </trkpt>
      <trkpt lat="43.35573" lon="-0.58508">
        <ele>128.473389</ele>
        <time>2013-10-23T09:50:59Z</time>
      </trkpt>
      <trkpt lat="43.35579" lon="-0.58499">
        <ele>127.511963</ele>
        <time>2013-10-23T09:51:01Z</time>
      </trkpt>
      <trkpt lat="43.35587" lon="-0.58477">
        <ele>127.511963</ele>
        <time>2013-10-23T09:51:05Z</time>
      </trkpt>
      <trkpt lat="43.35595" lon="-0.58442">
        <ele>127.992554</ele>
        <time>2013-10-23T09:51:11Z</time>
      </trkpt>
      <trkpt lat="43.35597" lon="-0.58413">
        <ele>127.511963</ele>
        <time>2013-10-23T09:51:16Z</time>
      </trkpt>
      <trkpt lat="43.35596" lon="-0.58401">
        <ele>127.992554</ele>
        <time>2013-10-23T09:51:18Z</time>
      </trkpt>
      <trkpt lat="43.35602" lon="-0.58349">
        <ele>127.511963</ele>
        <time>2013-10-23T09:51:26Z</time>
      </trkpt>
      <trkpt lat="43.35609" lon="-0.58326">
        <ele>127.511963</ele>
        <time>2013-10-23T09:51:30Z</time>
      </trkpt>
      <trkpt lat="43.35614" lon="-0.58315">
        <ele>127.992554</ele>
        <time>2013-10-23T09:51:32Z</time>
      </trkpt>
      <trkpt lat="43.35635" lon="-0.58301">
        <ele>127.511963</ele>
        <time>2013-10-23T09:51:37Z</time>
      </trkpt>
      <trkpt lat="43.35655" lon="-0.58284">
        <ele>127.511963</ele>
        <time>2013-10-23T09:51:46Z</time>
      </trkpt>
      <trkpt lat="43.35652" lon="-0.58271">
        <ele>127.992554</ele>
        <time>2013-10-23T09:51:50Z</time>
      </trkpt>
      <trkpt lat="43.35645" lon="-0.582">
        <ele>128.473389</ele>
        <time>2013-10-23T09:52:02Z</time>
      </trkpt>
      <trkpt lat="43.35669" lon="-0.58102">
        <ele>128.954102</ele>
        <time>2013-10-23T09:52:18Z</time>
      </trkpt>
      <trkpt lat="43.35718" lon="-0.57931">
        <ele>129.434692</ele>
        <time>2013-10-23T09:52:42Z</time>
      </trkpt>
      <trkpt lat="43.35777" lon="-0.57725">
        <ele>129.434692</ele>
        <time>2013-10-23T09:53:08Z</time>
      </trkpt>
      <trkpt lat="43.35808" lon="-0.57616">
        <ele>129.915283</ele>
        <time>2013-10-23T09:53:23Z</time>
      </trkpt>
      <trkpt lat="43.35804" lon="-0.5756">
        <ele>127.992554</ele>
        <time>2013-10-23T09:53:30Z</time>
      </trkpt>
      <trkpt lat="43.35767" lon="-0.57454">
        <ele>127.992554</ele>
        <time>2013-10-23T09:53:45Z</time>
      </trkpt>
      <trkpt lat="43.35747" lon="-0.57362">
        <ele>127.511963</ele>
        <time>2013-10-23T09:53:58Z</time>
      </trkpt>
      <trkpt lat="43.35716" lon="-0.57269">
        <ele>128.954102</ele>
        <time>2013-10-23T09:54:13Z</time>
      </trkpt>
      <trkpt lat="43.35677" lon="-0.57149">
        <ele>129.434692</ele>
        <time>2013-10-23T09:54:33Z</time>
      </trkpt>
      <trkpt lat="43.35665" lon="-0.57042">
        <ele>130.876709</ele>
        <time>2013-10-23T09:54:49Z</time>
      </trkpt>
      <trkpt lat="43.35682" lon="-0.56917">
        <ele>130.395996</ele>
        <time>2013-10-23T09:55:08Z</time>
      </trkpt>
      <trkpt lat="43.35706" lon="-0.56801">
        <ele>129.434692</ele>
        <time>2013-10-23T09:55:25Z</time>
      </trkpt>
      <trkpt lat="43.35717" lon="-0.56761">
        <ele>129.915283</ele>
        <time>2013-10-23T09:55:32Z</time>
      </trkpt>
      <trkpt lat="43.357" lon="-0.5675">
        <ele>129.434692</ele>
        <time>2013-10-23T09:55:39Z</time>
      </trkpt>
      <trkpt lat="43.356" lon="-0.5682">
        <ele>128.954102</ele>
        <time>2013-10-23T09:56:01Z</time>
      </trkpt>
      <trkpt lat="43.3554" lon="-0.56856">
        <ele>129.434692</ele>
        <time>2013-10-23T09:56:14Z</time>
      </trkpt>
      <trkpt lat="43.35519" lon="-0.56838">
        <ele>129.434692</ele>
        <time>2013-10-23T09:56:21Z</time>
      </trkpt>
      <trkpt lat="43.3552" lon="-0.56821">
        <ele>130.395996</ele>
        <time>2013-10-23T09:56:24Z</time>
      </trkpt>
      <trkpt lat="43.35507" lon="-0.567">
        <ele>130.395996</ele>
        <time>2013-10-23T09:56:43Z</time>
      </trkpt>
      <trkpt lat="43.35501" lon="-0.56661">
        <ele>130.395996</ele>
        <time>2013-10-23T09:56:49Z</time>
      </trkpt>
      <trkpt lat="43.3547" lon="-0.56578">
        <ele>129.434692</ele>
        <time>2013-10-23T09:57:04Z</time>
      </trkpt>
      <trkpt lat="43.35461" lon="-0.56503">
        <ele>129.434692</ele>
        <time>2013-10-23T09:57:16Z</time>
      </trkpt>
      <trkpt lat="43.35441" lon="-0.56483">
        <ele>130.395996</ele>
        <time>2013-10-23T09:57:22Z</time>
      </trkpt>
      <trkpt lat="43.3532" lon="-0.56482">
        <ele>130.876709</ele>
        <time>2013-10-23T09:57:43Z</time>
      </trkpt>
      <trkpt lat="43.35261" lon="-0.56484">
        <ele>131.3573</ele>
        <time>2013-10-23T09:57:54Z</time>
      </trkpt>
      <trkpt lat="43.3521" lon="-0.56475">
        <ele>130.876709</ele>
        <time>2013-10-23T09:58:05Z</time>
      </trkpt>
      <trkpt lat="43.35182" lon="-0.56466">
        <ele>130.876709</ele>
        <time>2013-10-23T09:58:10Z</time>
      </trkpt>
      <trkpt lat="43.3515" lon="-0.56455">
        <ele>130.876709</ele>
        <time>2013-10-23T09:58:16Z</time>
      </trkpt>
      <trkpt lat="43.35133" lon="-0.56427">
        <ele>130.395996</ele>
        <time>2013-10-23T09:58:21Z</time>
      </trkpt>
      <trkpt lat="43.35122" lon="-0.56404">
        <ele>130.876709</ele>
        <time>2013-10-23T09:58:25Z</time>
      </trkpt>
      <trkpt lat="43.35113" lon="-0.56373">
        <ele>130.395996</ele>
        <time>2013-10-23T09:58:30Z</time>
      </trkpt>
      <trkpt lat="43.35117" lon="-0.56288">
        <ele>129.915283</ele>
        <time>2013-10-23T09:58:42Z</time>
      </trkpt>
      <trkpt lat="43.35121" lon="-0.56148">
        <ele>129.915283</ele>
        <time>2013-10-23T09:59:01Z</time>
      </trkpt>
      <trkpt lat="43.35097" lon="-0.56057">
        <ele>128.954102</ele>
        <time>2013-10-23T09:59:15Z</time>
      </trkpt>
      <trkpt lat="43.3506" lon="-0.55945">
        <ele>129.915283</ele>
        <time>2013-10-23T09:59:33Z</time>
      </trkpt>
      <trkpt lat="43.35028" lon="-0.55853">
        <ele>129.915283</ele>
        <time>2013-10-23T09:59:48Z</time>
      </trkpt>
      <trkpt lat="43.34983" lon="-0.55715">
        <ele>129.915283</ele>
        <time>2013-10-23T10:00:10Z</time>
      </trkpt>
      <trkpt lat="43.34964" lon="-0.55667">
        <ele>129.434692</ele>
        <time>2013-10-23T10:00:18Z</time>
      </trkpt>
      <trkpt lat="43.34967" lon="-0.55636">
        <ele>129.915283</ele>
        <time>2013-10-23T10:00:23Z</time>
      </trkpt>
      <trkpt lat="43.3499" lon="-0.55603">
        <ele>129.915283</ele>
        <time>2013-10-23T10:00:30Z</time>
      </trkpt>
      <trkpt lat="43.34998" lon="-0.55585">
        <ele>130.395996</ele>
        <time>2013-10-23T10:00:33Z</time>
      </trkpt>
      <trkpt lat="43.35001" lon="-0.55558">
        <ele>129.434692</ele>
        <time>2013-10-23T10:00:37Z</time>
      </trkpt>
      <trkpt lat="43.3498" lon="-0.55478">
        <ele>129.434692</ele>
        <time>2013-10-23T10:00:49Z</time>
      </trkpt>
      <trkpt lat="43.3498" lon="-0.55446">
        <ele>129.434692</ele>
        <time>2013-10-23T10:00:54Z</time>
      </trkpt>
      <trkpt lat="43.35013" lon="-0.55365">
        <ele>129.915283</ele>
        <time>2013-10-23T10:01:08Z</time>
      </trkpt>
      <trkpt lat="43.35032" lon="-0.55318">
        <ele>129.915283</ele>
        <time>2013-10-23T10:01:16Z</time>
      </trkpt>
      <trkpt lat="43.35047" lon="-0.55283">
        <ele>129.915283</ele>
        <time>2013-10-23T10:01:22Z</time>
      </trkpt>
      <trkpt lat="43.35069" lon="-0.55273">
        <ele>130.395996</ele>
        <time>2013-10-23T10:01:28Z</time>
      </trkpt>
      <trkpt lat="43.35134" lon="-0.55334">
        <ele>129.915283</ele>
        <time>2013-10-23T10:01:43Z</time>
      </trkpt>
      <trkpt lat="43.35186" lon="-0.55381">
        <ele>129.434692</ele>
        <time>2013-10-23T10:01:55Z</time>
      </trkpt>
      <trkpt lat="43.35206" lon="-0.55382">
        <ele>129.915283</ele>
        <time>2013-10-23T10:01:59Z</time>
      </trkpt>
      <trkpt lat="43.35224" lon="-0.55375">
        <ele>129.915283</ele>
        <time>2013-10-23T10:02:03Z</time>
      </trkpt>
      <trkpt lat="43.35232" lon="-0.5535">
        <ele>130.876709</ele>
        <time>2013-10-23T10:02:09Z</time>
      </trkpt>
      <trkpt lat="43.35226" lon="-0.55284">
        <ele>133.279907</ele>
        <time>2013-10-23T10:02:23Z</time>
      </trkpt>
      <trkpt lat="43.35223" lon="-0.55253">
        <ele>133.279907</ele>
        <time>2013-10-23T10:02:29Z</time>
      </trkpt>
      <trkpt lat="43.35196" lon="-0.55189">
        <ele>135.202515</ele>
        <time>2013-10-23T10:02:43Z</time>
      </trkpt>
      <trkpt lat="43.35162" lon="-0.5513">
        <ele>135.683105</ele>
        <time>2013-10-23T10:02:58Z</time>
      </trkpt>
      <trkpt lat="43.35114" lon="-0.55108">
        <ele>136.16394</ele>
        <time>2013-10-23T10:03:11Z</time>
      </trkpt>
      <trkpt lat="43.35058" lon="-0.55075">
        <ele>135.202515</ele>
        <time>2013-10-23T10:03:23Z</time>
      </trkpt>
      <trkpt lat="43.34988" lon="-0.55003">
        <ele>135.202515</ele>
        <time>2013-10-23T10:03:39Z</time>
      </trkpt>
      <trkpt lat="43.34947" lon="-0.54933">
        <ele>136.16394</ele>
        <time>2013-10-23T10:03:54Z</time>
      </trkpt>
      <trkpt lat="43.34921" lon="-0.54914">
        <ele>136.644653</ele>
        <time>2013-10-23T10:04:03Z</time>
      </trkpt>
      <trkpt lat="43.3489" lon="-0.54898">
        <ele>136.16394</ele>
        <time>2013-10-23T10:04:11Z</time>
      </trkpt>
      <trkpt lat="43.3486" lon="-0.54889">
        <ele>136.16394</ele>
        <time>2013-10-23T10:04:18Z</time>
      </trkpt>
      <trkpt lat="43.34837" lon="-0.54863">
        <ele>136.16394</ele>
        <time>2013-10-23T10:04:24Z</time>
      </trkpt>
      <trkpt lat="43.34833" lon="-0.54824">
        <ele>135.683105</ele>
        <time>2013-10-23T10:04:30Z</time>
      </trkpt>
      <trkpt lat="43.34857" lon="-0.54781">
        <ele>137.125244</ele>
        <time>2013-10-23T10:04:41Z</time>
      </trkpt>
      <trkpt lat="43.34882" lon="-0.54761">
        <ele>140.970459</ele>
        <time>2013-10-23T10:04:54Z</time>
      </trkpt>
      <trkpt lat="43.34897" lon="-0.54738">
        <ele>142.412476</ele>
        <time>2013-10-23T10:05:06Z</time>
      </trkpt>
      <trkpt lat="43.34916" lon="-0.54687">
        <ele>144.335205</ele>
        <time>2013-10-23T10:05:23Z</time>
      </trkpt>
      <trkpt lat="43.34929" lon="-0.54646">
        <ele>147.699707</ele>
        <time>2013-10-23T10:05:37Z</time>
      </trkpt>
      <trkpt lat="43.34939" lon="-0.54639">
        <ele>148.661011</ele>
        <time>2013-10-23T10:05:42Z</time>
      </trkpt>
      <trkpt lat="43.34965" lon="-0.54633">
        <ele>152.025757</ele>
        <time>2013-10-23T10:05:56Z</time>
      </trkpt>
      <trkpt lat="43.34984" lon="-0.54637">
        <ele>155.390259</ele>
        <time>2013-10-23T10:06:06Z</time>
      </trkpt>
      <trkpt lat="43.35011" lon="-0.54643">
        <ele>158.754761</ele>
        <time>2013-10-23T10:06:19Z</time>
      </trkpt>
      <trkpt lat="43.35038" lon="-0.54649">
        <ele>160.67749</ele>
        <time>2013-10-23T10:06:34Z</time>
      </trkpt>
      <trkpt lat="43.35068" lon="-0.54651">
        <ele>163.561523</ele>
        <time>2013-10-23T10:06:49Z</time>
      </trkpt>
      <trkpt lat="43.35071" lon="-0.54652">
        <ele>165.003418</ele>
        <time>2013-10-23T10:06:51Z</time>
      </trkpt>
      <trkpt lat="43.35093" lon="-0.54659">
        <ele>166.445313</ele>
        <time>2013-10-23T10:07:05Z</time>
      </trkpt>
      <trkpt lat="43.35112" lon="-0.54635">
        <ele>167.887329</ele>
        <time>2013-10-23T10:07:18Z</time>
      </trkpt>
      <trkpt lat="43.35134" lon="-0.54624">
        <ele>170.290649</ele>
        <time>2013-10-23T10:07:29Z</time>
      </trkpt>
      <trkpt lat="43.3516" lon="-0.54594">
        <ele>172.213257</ele>
        <time>2013-10-23T10:07:44Z</time>
      </trkpt>
      <trkpt lat="43.35163" lon="-0.54561">
        <ele>175.09729</ele>
        <time>2013-10-23T10:07:56Z</time>
      </trkpt>
      <trkpt lat="43.35162" lon="-0.54534">
        <ele>177.02002</ele>
        <time>2013-10-23T10:08:06Z</time>
      </trkpt>
      <trkpt lat="43.35163" lon="-0.54499">
        <ele>180.384521</ele>
        <time>2013-10-23T10:08:20Z</time>
      </trkpt>
      <trkpt lat="43.35167" lon="-0.54474">
        <ele>183.749023</ele>
        <time>2013-10-23T10:08:31Z</time>
      </trkpt>
      <trkpt lat="43.35183" lon="-0.54422">
        <ele>186.152466</ele>
        <time>2013-10-23T10:08:52Z</time>
      </trkpt>
      <trkpt lat="43.35197" lon="-0.54347">
        <ele>185.671753</ele>
        <time>2013-10-23T10:09:08Z</time>
      </trkpt>
      <trkpt lat="43.35205" lon="-0.54318">
        <ele>185.191162</ele>
        <time>2013-10-23T10:09:13Z</time>
      </trkpt>
      <trkpt lat="43.35202" lon="-0.54286">
        <ele>185.191162</ele>
        <time>2013-10-23T10:09:18Z</time>
      </trkpt>
      <trkpt lat="43.35186" lon="-0.54219">
        <ele>187.59436</ele>
        <time>2013-10-23T10:09:33Z</time>
      </trkpt>
      <trkpt lat="43.35173" lon="-0.54182">
        <ele>190.958984</ele>
        <time>2013-10-23T10:09:45Z</time>
      </trkpt>
      <trkpt lat="43.35176" lon="-0.54148">
        <ele>193.843018</ele>
        <time>2013-10-23T10:09:58Z</time>
      </trkpt>
      <trkpt lat="43.35187" lon="-0.54107">
        <ele>197.688232</ele>
        <time>2013-10-23T10:10:15Z</time>
      </trkpt>
      <trkpt lat="43.35188" lon="-0.54105">
        <ele>197.688232</ele>
        <time>2013-10-23T10:10:16Z</time>
      </trkpt>
      <trkpt lat="43.35195" lon="-0.54087">
        <ele>200.091675</ele>
        <time>2013-10-23T10:10:25Z</time>
      </trkpt>
      <trkpt lat="43.35196" lon="-0.54079">
        <ele>202.494873</ele>
        <time>2013-10-23T10:10:29Z</time>
      </trkpt>
      <trkpt lat="43.35186" lon="-0.54056">
        <ele>204.898071</ele>
        <time>2013-10-23T10:10:41Z</time>
      </trkpt>
      <trkpt lat="43.35155" lon="-0.5404">
        <ele>206.340088</ele>
        <time>2013-10-23T10:10:57Z</time>
      </trkpt>
      <trkpt lat="43.35128" lon="-0.54034">
        <ele>206.340088</ele>
        <time>2013-10-23T10:11:09Z</time>
      </trkpt>
      <trkpt lat="43.35101" lon="-0.54006">
        <ele>206.340088</ele>
        <time>2013-10-23T10:11:18Z</time>
      </trkpt>
      <trkpt lat="43.35097" lon="-0.53991">
        <ele>205.859497</ele>
        <time>2013-10-23T10:11:21Z</time>
      </trkpt>
      <trkpt lat="43.35084" lon="-0.53964">
        <ele>205.378784</ele>
        <time>2013-10-23T10:11:26Z</time>
      </trkpt>
      <trkpt lat="43.35079" lon="-0.53949">
        <ele>204.41748</ele>
        <time>2013-10-23T10:11:28Z</time>
      </trkpt>
      <trkpt lat="43.35072" lon="-0.53916">
        <ele>203.93689</ele>
        <time>2013-10-23T10:11:32Z</time>
      </trkpt>
      <trkpt lat="43.35073" lon="-0.53885">
        <ele>203.93689</ele>
        <time>2013-10-23T10:11:36Z</time>
      </trkpt>
      <trkpt lat="43.35075" lon="-0.53859">
        <ele>203.456177</ele>
        <time>2013-10-23T10:11:40Z</time>
      </trkpt>
      <trkpt lat="43.35071" lon="-0.53831">
        <ele>202.975464</ele>
        <time>2013-10-23T10:11:44Z</time>
      </trkpt>
      <trkpt lat="43.35068" lon="-0.53817">
        <ele>202.975464</ele>
        <time>2013-10-23T10:11:46Z</time>
      </trkpt>
      <trkpt lat="43.35058" lon="-0.53773">
        <ele>201.533569</ele>
        <time>2013-10-23T10:11:51Z</time>
      </trkpt>
      <trkpt lat="43.35046" lon="-0.53722">
        <ele>199.61084</ele>
        <time>2013-10-23T10:11:56Z</time>
      </trkpt>
      <trkpt lat="43.35036" lon="-0.53694">
        <ele>198.649536</ele>
        <time>2013-10-23T10:11:59Z</time>
      </trkpt>
      <trkpt lat="43.35009" lon="-0.53624">
        <ele>200.091675</ele>
        <time>2013-10-23T10:12:10Z</time>
      </trkpt>
      <trkpt lat="43.35002" lon="-0.53589">
        <ele>200.572266</ele>
        <time>2013-10-23T10:12:17Z</time>
      </trkpt>
      <trkpt lat="43.35005" lon="-0.5348">
        <ele>200.572266</ele>
        <time>2013-10-23T10:12:37Z</time>
      </trkpt>
      <trkpt lat="43.34999" lon="-0.5337">
        <ele>203.93689</ele>
        <time>2013-10-23T10:12:56Z</time>
      </trkpt>
      <trkpt lat="43.34999" lon="-0.53365">
        <ele>203.93689</ele>
        <time>2013-10-23T10:12:57Z</time>
      </trkpt>
      <trkpt lat="43.34991" lon="-0.53341">
        <ele>205.378784</ele>
        <time>2013-10-23T10:13:03Z</time>
      </trkpt>
      <trkpt lat="43.34975" lon="-0.53297">
        <ele>207.301392</ele>
        <time>2013-10-23T10:13:13Z</time>
      </trkpt>
      <trkpt lat="43.34973" lon="-0.53291">
        <ele>208.262817</ele>
        <time>2013-10-23T10:13:15Z</time>
      </trkpt>
      <trkpt lat="43.34967" lon="-0.5325">
        <ele>208.743408</ele>
        <time>2013-10-23T10:13:29Z</time>
      </trkpt>
      <trkpt lat="43.34943" lon="-0.53208">
        <ele>207.301392</ele>
        <time>2013-10-23T10:13:40Z</time>
      </trkpt>
      <trkpt lat="43.34931" lon="-0.53188">
        <ele>207.782104</ele>
        <time>2013-10-23T10:13:44Z</time>
      </trkpt>
      <trkpt lat="43.34903" lon="-0.53172">
        <ele>204.898071</ele>
        <time>2013-10-23T10:13:51Z</time>
      </trkpt>
      <trkpt lat="43.34862" lon="-0.53169">
        <ele>201.052856</ele>
        <time>2013-10-23T10:13:57Z</time>
      </trkpt>
      <trkpt lat="43.34854" lon="-0.53168">
        <ele>200.572266</ele>
        <time>2013-10-23T10:13:58Z</time>
      </trkpt>
      <trkpt lat="43.34833" lon="-0.53166">
        <ele>200.091675</ele>
        <time>2013-10-23T10:14:01Z</time>
      </trkpt>
      <trkpt lat="43.34792" lon="-0.5318">
        <ele>201.533569</ele>
        <time>2013-10-23T10:14:12Z</time>
      </trkpt>
      <trkpt lat="43.34766" lon="-0.53206">
        <ele>205.378784</ele>
        <time>2013-10-23T10:14:21Z</time>
      </trkpt>
      <trkpt lat="43.34764" lon="-0.53208">
        <ele>204.898071</ele>
        <time>2013-10-23T10:14:22Z</time>
      </trkpt>
      <trkpt lat="43.34733" lon="-0.53249">
        <ele>206.820679</ele>
        <time>2013-10-23T10:14:37Z</time>
      </trkpt>
      <trkpt lat="43.34714" lon="-0.53294">
        <ele>206.820679</ele>
        <time>2013-10-23T10:14:49Z</time>
      </trkpt>
      <trkpt lat="43.34699" lon="-0.53348">
        <ele>206.340088</ele>
        <time>2013-10-23T10:15:01Z</time>
      </trkpt>
      <trkpt lat="43.34687" lon="-0.53404">
        <ele>207.782104</ele>
        <time>2013-10-23T10:15:13Z</time>
      </trkpt>
      <trkpt lat="43.34683" lon="-0.53415">
        <ele>209.224121</ele>
        <time>2013-10-23T10:15:16Z</time>
      </trkpt>
      <trkpt lat="43.34667" lon="-0.53451">
        <ele>210.666016</ele>
        <time>2013-10-23T10:15:26Z</time>
      </trkpt>
      <trkpt lat="43.34663" lon="-0.53489">
        <ele>211.627441</ele>
        <time>2013-10-23T10:15:36Z</time>
      </trkpt>
      <trkpt lat="43.34657" lon="-0.53521">
        <ele>213.550049</ele>
        <time>2013-10-23T10:15:46Z</time>
      </trkpt>
      <trkpt lat="43.34654" lon="-0.53538">
        <ele>215.472656</ele>
        <time>2013-10-23T10:15:52Z</time>
      </trkpt>
      <trkpt lat="43.34652" lon="-0.53552">
        <ele>216.43396</ele>
        <time>2013-10-23T10:15:57Z</time>
      </trkpt>
      <trkpt lat="43.3464" lon="-0.53581">
        <ele>217.875977</ele>
        <time>2013-10-23T10:16:07Z</time>
      </trkpt>
      <trkpt lat="43.34623" lon="-0.53613">
        <ele>219.798584</ele>
        <time>2013-10-23T10:16:20Z</time>
      </trkpt>
      <trkpt lat="43.346" lon="-0.53639">
        <ele>223.163208</ele>
        <time>2013-10-23T10:16:34Z</time>
      </trkpt>
      <trkpt lat="43.34579" lon="-0.53653">
        <ele>223.163208</ele>
        <time>2013-10-23T10:16:46Z</time>
      </trkpt>
      <trkpt lat="43.34556" lon="-0.53639">
        <ele>221.240601</ele>
        <time>2013-10-23T10:16:52Z</time>
      </trkpt>
      <trkpt lat="43.34549" lon="-0.53628">
        <ele>220.279175</ele>
        <time>2013-10-23T10:16:54Z</time>
      </trkpt>
      <trkpt lat="43.34544" lon="-0.53608">
        <ele>218.83728</ele>
        <time>2013-10-23T10:16:56Z</time>
      </trkpt>
      <trkpt lat="43.34541" lon="-0.53561">
        <ele>217.395386</ele>
        <time>2013-10-23T10:17:01Z</time>
      </trkpt>
      <trkpt lat="43.34541" lon="-0.53522">
        <ele>217.875977</ele>
        <time>2013-10-23T10:17:06Z</time>
      </trkpt>
      <trkpt lat="43.34539" lon="-0.53499">
        <ele>217.875977</ele>
        <time>2013-10-23T10:17:09Z</time>
      </trkpt>
      <trkpt lat="43.34537" lon="-0.53486">
        <ele>216.914673</ele>
        <time>2013-10-23T10:17:11Z</time>
      </trkpt>
      <trkpt lat="43.34533" lon="-0.53473">
        <ele>216.914673</ele>
        <time>2013-10-23T10:17:13Z</time>
      </trkpt>
      <trkpt lat="43.34503" lon="-0.53401">
        <ele>217.395386</ele>
        <time>2013-10-23T10:17:25Z</time>
      </trkpt>
      <trkpt lat="43.34503" lon="-0.53362">
        <ele>219.798584</ele>
        <time>2013-10-23T10:17:35Z</time>
      </trkpt>
      <trkpt lat="43.34504" lon="-0.53348">
        <ele>221.721191</ele>
        <time>2013-10-23T10:17:40Z</time>
      </trkpt>
      <trkpt lat="43.34495" lon="-0.53317">
        <ele>221.721191</ele>
        <time>2013-10-23T10:17:49Z</time>
      </trkpt>
      <trkpt lat="43.34464" lon="-0.53256">
        <ele>220.279175</ele>
        <time>2013-10-23T10:18:01Z</time>
      </trkpt>
      <trkpt lat="43.34462" lon="-0.53251">
        <ele>219.798584</ele>
        <time>2013-10-23T10:18:02Z</time>
      </trkpt>
      <trkpt lat="43.34441" lon="-0.5319">
        <ele>218.356567</ele>
        <time>2013-10-23T10:18:11Z</time>
      </trkpt>
      <trkpt lat="43.34435" lon="-0.53103">
        <ele>220.279175</ele>
        <time>2013-10-23T10:18:25Z</time>
      </trkpt>
      <trkpt lat="43.34426" lon="-0.53059">
        <ele>219.798584</ele>
        <time>2013-10-23T10:18:34Z</time>
      </trkpt>
      <trkpt lat="43.3442" lon="-0.53043">
        <ele>219.798584</ele>
        <time>2013-10-23T10:18:37Z</time>
      </trkpt>
      <trkpt lat="43.34401" lon="-0.5301">
        <ele>218.83728</ele>
        <time>2013-10-23T10:18:44Z</time>
      </trkpt>
      <trkpt lat="43.34385" lon="-0.52989">
        <ele>217.395386</ele>
        <time>2013-10-23T10:18:50Z</time>
      </trkpt>
      <trkpt lat="43.34358" lon="-0.53002">
        <ele>218.356567</ele>
        <time>2013-10-23T10:18:57Z</time>
      </trkpt>
      <trkpt lat="43.34321" lon="-0.53023">
        <ele>220.279175</ele>
        <time>2013-10-23T10:19:08Z</time>
      </trkpt>
      <trkpt lat="43.34292" lon="-0.53051">
        <ele>220.279175</ele>
        <time>2013-10-23T10:19:19Z</time>
      </trkpt>
      <trkpt lat="43.34264" lon="-0.53099">
        <ele>220.279175</ele>
        <time>2013-10-23T10:19:28Z</time>
      </trkpt>
      <trkpt lat="43.34226" lon="-0.53142">
        <ele>219.798584</ele>
        <time>2013-10-23T10:19:38Z</time>
      </trkpt>
      <trkpt lat="43.34214" lon="-0.53157">
        <ele>220.759888</ele>
        <time>2013-10-23T10:19:42Z</time>
      </trkpt>
      <trkpt lat="43.34177" lon="-0.53186">
        <ele>220.759888</ele>
        <time>2013-10-23T10:19:53Z</time>
      </trkpt>
      <trkpt lat="43.34146" lon="-0.53185">
        <ele>217.395386</ele>
        <time>2013-10-23T10:20:00Z</time>
      </trkpt>
      <trkpt lat="43.34139" lon="-0.53199">
        <ele>216.43396</ele>
        <time>2013-10-23T10:20:03Z</time>
      </trkpt>
      <trkpt lat="43.34133" lon="-0.53213">
        <ele>214.51123</ele>
        <time>2013-10-23T10:20:05Z</time>
      </trkpt>
      <trkpt lat="43.3412" lon="-0.53241">
        <ele>210.666016</ele>
        <time>2013-10-23T10:20:09Z</time>
      </trkpt>
      <trkpt lat="43.34097" lon="-0.53267">
        <ele>207.782104</ele>
        <time>2013-10-23T10:20:13Z</time>
      </trkpt>
      <trkpt lat="43.34087" lon="-0.53278">
        <ele>206.340088</ele>
        <time>2013-10-23T10:20:16Z</time>
      </trkpt>
      <trkpt lat="43.34071" lon="-0.53291">
        <ele>203.456177</ele>
        <time>2013-10-23T10:20:19Z</time>
      </trkpt>
      <trkpt lat="43.34066" lon="-0.53295">
        <ele>202.494873</ele>
        <time>2013-10-23T10:20:20Z</time>
      </trkpt>
      <trkpt lat="43.34045" lon="-0.53317">
        <ele>199.130127</ele>
        <time>2013-10-23T10:20:24Z</time>
      </trkpt>
      <trkpt lat="43.34002" lon="-0.53322">
        <ele>196.726929</ele>
        <time>2013-10-23T10:20:31Z</time>
      </trkpt>
      <trkpt lat="43.3396" lon="-0.53314">
        <ele>192.881714</ele>
        <time>2013-10-23T10:20:36Z</time>
      </trkpt>
      <trkpt lat="43.33939" lon="-0.53323">
        <ele>189.036377</ele>
        <time>2013-10-23T10:20:40Z</time>
      </trkpt>
      <trkpt lat="43.33901" lon="-0.53319">
        <ele>187.11377</ele>
        <time>2013-10-23T10:20:46Z</time>
      </trkpt>
      <trkpt lat="43.33889" lon="-0.53316">
        <ele>186.152466</ele>
        <time>2013-10-23T10:20:48Z</time>
      </trkpt>
      <trkpt lat="43.33878" lon="-0.53315">
        <ele>184.710571</ele>
        <time>2013-10-23T10:20:50Z</time>
      </trkpt>
      <trkpt lat="43.3387" lon="-0.53312">
        <ele>184.229858</ele>
        <time>2013-10-23T10:20:52Z</time>
      </trkpt>
      <trkpt lat="43.3386" lon="-0.53308">
        <ele>181.826416</ele>
        <time>2013-10-23T10:20:56Z</time>
      </trkpt>
      <trkpt lat="43.33859" lon="-0.53302">
        <ele>181.826416</ele>
        <time>2013-10-23T10:21:07Z</time>
      </trkpt>
      <trkpt lat="43.33852" lon="-0.53302">
        <ele>180.865234</ele>
        <time>2013-10-23T10:21:20Z</time>
      </trkpt>
      <trkpt lat="43.33844" lon="-0.53305">
        <ele>179.903809</ele>
        <time>2013-10-23T10:21:32Z</time>
      </trkpt>
      <trkpt lat="43.33829" lon="-0.53305">
        <ele>178.461914</ele>
        <time>2013-10-23T10:21:37Z</time>
      </trkpt>
      <trkpt lat="43.338" lon="-0.53305">
        <ele>174.616577</ele>
        <time>2013-10-23T10:21:42Z</time>
      </trkpt>
      <trkpt lat="43.33794" lon="-0.53305">
        <ele>172.69397</ele>
        <time>2013-10-23T10:21:43Z</time>
      </trkpt>
      <trkpt lat="43.33772" lon="-0.53302">
        <ele>171.732666</ele>
        <time>2013-10-23T10:21:47Z</time>
      </trkpt>
      <trkpt lat="43.33752" lon="-0.53302">
        <ele>169.329468</ele>
        <time>2013-10-23T10:21:51Z</time>
      </trkpt>
      <trkpt lat="43.33739" lon="-0.53307">
        <ele>167.887329</ele>
        <time>2013-10-23T10:21:53Z</time>
      </trkpt>
      <trkpt lat="43.33699" lon="-0.53303">
        <ele>164.042114</ele>
        <time>2013-10-23T10:22:00Z</time>
      </trkpt>
      <trkpt lat="43.33671" lon="-0.53273">
        <ele>163.561523</ele>
        <time>2013-10-23T10:22:06Z</time>
      </trkpt>
      <trkpt lat="43.33651" lon="-0.53257">
        <ele>161.638916</ele>
        <time>2013-10-23T10:22:10Z</time>
      </trkpt>
      <trkpt lat="43.33625" lon="-0.53242">
        <ele>158.754761</ele>
        <time>2013-10-23T10:22:15Z</time>
      </trkpt>
      <trkpt lat="43.33594" lon="-0.53237">
        <ele>153.948364</ele>
        <time>2013-10-23T10:22:21Z</time>
      </trkpt>
      <trkpt lat="43.33575" lon="-0.53236">
        <ele>152.506348</ele>
        <time>2013-10-23T10:22:24Z</time>
      </trkpt>
      <trkpt lat="43.33571" lon="-0.53234">
        <ele>152.025757</ele>
        <time>2013-10-23T10:22:25Z</time>
      </trkpt>
      <trkpt lat="43.33534" lon="-0.53226">
        <ele>148.18042</ele>
        <time>2013-10-23T10:22:31Z</time>
      </trkpt>
      <trkpt lat="43.33518" lon="-0.53224">
        <ele>147.218994</ele>
        <time>2013-10-23T10:22:33Z</time>
      </trkpt>
      <trkpt lat="43.33488" lon="-0.53232">
        <ele>144.335205</ele>
        <time>2013-10-23T10:22:38Z</time>
      </trkpt>
      <trkpt lat="43.33482" lon="-0.53238">
        <ele>143.373657</ele>
        <time>2013-10-23T10:22:39Z</time>
      </trkpt>
      <trkpt lat="43.3346" lon="-0.53242">
        <ele>141.45105</ele>
        <time>2013-10-23T10:22:47Z</time>
      </trkpt>
      <trkpt lat="43.33455" lon="-0.53246">
        <ele>140.489868</ele>
        <time>2013-10-23T10:22:49Z</time>
      </trkpt>
      <trkpt lat="43.33401" lon="-0.53314">
        <ele>139.047852</ele>
        <time>2013-10-23T10:23:04Z</time>
      </trkpt>
      <trkpt lat="43.33345" lon="-0.53388">
        <ele>137.605835</ele>
        <time>2013-10-23T10:23:17Z</time>
      </trkpt>
      <trkpt lat="43.33276" lon="-0.53479">
        <ele>134.721924</ele>
        <time>2013-10-23T10:23:32Z</time>
      </trkpt>
      <trkpt lat="43.33179" lon="-0.53604">
        <ele>135.683105</ele>
        <time>2013-10-23T10:23:53Z</time>
      </trkpt>
      <trkpt lat="43.33094" lon="-0.53697">
        <ele>134.241211</ele>
        <time>2013-10-23T10:24:11Z</time>
      </trkpt>
      <trkpt lat="43.33014" lon="-0.53747">
        <ele>135.202515</ele>
        <time>2013-10-23T10:24:26Z</time>
      </trkpt>
      <trkpt lat="43.32948" lon="-0.53801">
        <ele>135.683105</ele>
        <time>2013-10-23T10:24:41Z</time>
      </trkpt>
      <trkpt lat="43.32911" lon="-0.53886">
        <ele>135.683105</ele>
        <time>2013-10-23T10:24:56Z</time>
      </trkpt>
      <trkpt lat="43.32885" lon="-0.5396">
        <ele>136.16394</ele>
        <time>2013-10-23T10:25:09Z</time>
      </trkpt>
      <trkpt lat="43.32883" lon="-0.53966">
        <ele>136.16394</ele>
        <time>2013-10-23T10:25:10Z</time>
      </trkpt>
      <trkpt lat="43.32833" lon="-0.54068">
        <ele>139.528442</ele>
        <time>2013-10-23T10:25:30Z</time>
      </trkpt>
      <trkpt lat="43.32783" lon="-0.54144">
        <ele>142.412476</ele>
        <time>2013-10-23T10:25:49Z</time>
      </trkpt>
      <trkpt lat="43.32722" lon="-0.54235">
        <ele>144.815796</ele>
        <time>2013-10-23T10:26:14Z</time>
      </trkpt>
      <trkpt lat="43.32656" lon="-0.54307">
        <ele>147.699707</ele>
        <time>2013-10-23T10:26:37Z</time>
      </trkpt>
      <trkpt lat="43.32599" lon="-0.54361">
        <ele>150.103027</ele>
        <time>2013-10-23T10:26:56Z</time>
      </trkpt>
      <trkpt lat="43.32587" lon="-0.54351">
        <ele>150.583618</ele>
        <time>2013-10-23T10:27:00Z</time>
      </trkpt>
      <trkpt lat="43.32557" lon="-0.54289">
        <ele>152.506348</ele>
        <time>2013-10-23T10:27:17Z</time>
      </trkpt>
      <trkpt lat="43.32538" lon="-0.54244">
        <ele>155.390259</ele>
        <time>2013-10-23T10:27:35Z</time>
      </trkpt>
      <trkpt lat="43.32516" lon="-0.54228">
        <ele>158.754761</ele>
        <time>2013-10-23T10:27:48Z</time>
      </trkpt>
      <trkpt lat="43.32489" lon="-0.54233">
        <ele>161.638916</ele>
        <time>2013-10-23T10:28:06Z</time>
      </trkpt>
      <trkpt lat="43.32469" lon="-0.54232">
        <ele>165.003418</ele>
        <time>2013-10-23T10:28:19Z</time>
      </trkpt>
      <trkpt lat="43.32468" lon="-0.54232">
        <ele>165.003418</ele>
        <time>2013-10-23T10:28:20Z</time>
      </trkpt>
      <trkpt lat="43.32446" lon="-0.54236">
        <ele>168.368042</ele>
        <time>2013-10-23T10:28:36Z</time>
      </trkpt>
      <trkpt lat="43.32434" lon="-0.54245">
        <ele>171.252075</ele>
        <time>2013-10-23T10:28:47Z</time>
      </trkpt>
      <trkpt lat="43.32415" lon="-0.54266">
        <ele>175.577881</ele>
        <time>2013-10-23T10:29:06Z</time>
      </trkpt>
      <trkpt lat="43.3239" lon="-0.54282">
        <ele>177.02002</ele>
        <time>2013-10-23T10:29:25Z</time>
      </trkpt>
      <trkpt lat="43.3237" lon="-0.54303">
        <ele>178.942627</ele>
        <time>2013-10-23T10:29:42Z</time>
      </trkpt>
      <trkpt lat="43.32354" lon="-0.54325">
        <ele>180.384521</ele>
        <time>2013-10-23T10:29:57Z</time>
      </trkpt>
      <trkpt lat="43.32342" lon="-0.54341">
        <ele>183.268433</ele>
        <time>2013-10-23T10:30:08Z</time>
      </trkpt>
      <trkpt lat="43.32323" lon="-0.54359">
        <ele>185.671753</ele>
        <time>2013-10-23T10:30:23Z</time>
      </trkpt>
      <trkpt lat="43.32301" lon="-0.54368">
        <ele>188.555786</ele>
        <time>2013-10-23T10:30:39Z</time>
      </trkpt>
      <trkpt lat="43.32284" lon="-0.54376">
        <ele>190.958984</ele>
        <time>2013-10-23T10:30:53Z</time>
      </trkpt>
      <trkpt lat="43.32268" lon="-0.54377">
        <ele>194.32373</ele>
        <time>2013-10-23T10:31:07Z</time>
      </trkpt>
      <trkpt lat="43.32247" lon="-0.54374">
        <ele>197.688232</ele>
        <time>2013-10-23T10:31:18Z</time>
      </trkpt>
      <trkpt lat="43.32228" lon="-0.54366">
        <ele>201.052856</ele>
        <time>2013-10-23T10:31:32Z</time>
      </trkpt>
      <trkpt lat="43.322" lon="-0.54354">
        <ele>202.975464</ele>
        <time>2013-10-23T10:31:51Z</time>
      </trkpt>
      <trkpt lat="43.32182" lon="-0.54344">
        <ele>206.340088</ele>
        <time>2013-10-23T10:32:04Z</time>
      </trkpt>
      <trkpt lat="43.32166" lon="-0.54335">
        <ele>209.704834</ele>
        <time>2013-10-23T10:32:16Z</time>
      </trkpt>
      <trkpt lat="43.32143" lon="-0.54326">
        <ele>211.627441</ele>
        <time>2013-10-23T10:32:34Z</time>
      </trkpt>
      <trkpt lat="43.32113" lon="-0.54323">
        <ele>214.991943</ele>
        <time>2013-10-23T10:32:52Z</time>
      </trkpt>
      <trkpt lat="43.32085" lon="-0.54324">
        <ele>218.356567</ele>
        <time>2013-10-23T10:33:09Z</time>
      </trkpt>
      <trkpt lat="43.32059" lon="-0.54336">
        <ele>220.759888</ele>
        <time>2013-10-23T10:33:26Z</time>
      </trkpt>
      <trkpt lat="43.3203" lon="-0.54337">
        <ele>223.163208</ele>
        <time>2013-10-23T10:33:42Z</time>
      </trkpt>
      <trkpt lat="43.31983" lon="-0.54337">
        <ele>225.566528</ele>
        <time>2013-10-23T10:34:05Z</time>
      </trkpt>
      <trkpt lat="43.31949" lon="-0.54345">
        <ele>228.931152</ele>
        <time>2013-10-23T10:34:22Z</time>
      </trkpt>
      <trkpt lat="43.31911" lon="-0.54358">
        <ele>232.295776</ele>
        <time>2013-10-23T10:34:41Z</time>
      </trkpt>
      <trkpt lat="43.31882" lon="-0.54384">
        <ele>233.737671</ele>
        <time>2013-10-23T10:34:59Z</time>
      </trkpt>
      <trkpt lat="43.31859" lon="-0.54407">
        <ele>236.621704</ele>
        <time>2013-10-23T10:35:12Z</time>
      </trkpt>
      <trkpt lat="43.31831" lon="-0.54436">
        <ele>239.505493</ele>
        <time>2013-10-23T10:35:30Z</time>
      </trkpt>
      <trkpt lat="43.31807" lon="-0.5443">
        <ele>240.467041</ele>
        <time>2013-10-23T10:35:44Z</time>
      </trkpt>
      <trkpt lat="43.31781" lon="-0.54423">
        <ele>241.428223</ele>
        <time>2013-10-23T10:35:58Z</time>
      </trkpt>
      <trkpt lat="43.31756" lon="-0.54415">
        <ele>243.35083</ele>
        <time>2013-10-23T10:36:12Z</time>
      </trkpt>
      <trkpt lat="43.31727" lon="-0.54401">
        <ele>244.312256</ele>
        <time>2013-10-23T10:36:24Z</time>
      </trkpt>
      <trkpt lat="43.31724" lon="-0.54398">
        <ele>245.75415</ele>
        <time>2013-10-23T10:36:26Z</time>
      </trkpt>
      <trkpt lat="43.31695" lon="-0.54386">
        <ele>247.676758</ele>
        <time>2013-10-23T10:36:40Z</time>
      </trkpt>
      <trkpt lat="43.31662" lon="-0.54386">
        <ele>251.522095</ele>
        <time>2013-10-23T10:36:54Z</time>
      </trkpt>
      <trkpt lat="43.31627" lon="-0.5438">
        <ele>253.925415</ele>
        <time>2013-10-23T10:37:12Z</time>
      </trkpt>
      <trkpt lat="43.31594" lon="-0.54379">
        <ele>257.290039</ele>
        <time>2013-10-23T10:37:29Z</time>
      </trkpt>
      <trkpt lat="43.3157" lon="-0.54378">
        <ele>259.212646</ele>
        <time>2013-10-23T10:37:43Z</time>
      </trkpt>
      <trkpt lat="43.31553" lon="-0.54374">
        <ele>260.654541</ele>
        <time>2013-10-23T10:37:57Z</time>
      </trkpt>
      <trkpt lat="43.3154" lon="-0.54363">
        <ele>263.538574</ele>
        <time>2013-10-23T10:38:08Z</time>
      </trkpt>
      <trkpt lat="43.31525" lon="-0.54355">
        <ele>265.461304</ele>
        <time>2013-10-23T10:38:20Z</time>
      </trkpt>
      <trkpt lat="43.31502" lon="-0.54351">
        <ele>268.825806</ele>
        <time>2013-10-23T10:38:34Z</time>
      </trkpt>
      <trkpt lat="43.31473" lon="-0.54345">
        <ele>271.229126</ele>
        <time>2013-10-23T10:38:53Z</time>
      </trkpt>
      <trkpt lat="43.31459" lon="-0.5434">
        <ele>274.113037</ele>
        <time>2013-10-23T10:39:02Z</time>
      </trkpt>
      <trkpt lat="43.31432" lon="-0.54338">
        <ele>276.035645</ele>
        <time>2013-10-23T10:39:18Z</time>
      </trkpt>
      <trkpt lat="43.31399" lon="-0.54326">
        <ele>276.99707</ele>
        <time>2013-10-23T10:39:34Z</time>
      </trkpt>
      <trkpt lat="43.31336" lon="-0.54305">
        <ele>278.438965</ele>
        <time>2013-10-23T10:39:54Z</time>
      </trkpt>
      <trkpt lat="43.31287" lon="-0.54288">
        <ele>280.842407</ele>
        <time>2013-10-23T10:40:09Z</time>
      </trkpt>
      <trkpt lat="43.31228" lon="-0.54266">
        <ele>282.284302</ele>
        <time>2013-10-23T10:40:29Z</time>
      </trkpt>
      <trkpt lat="43.31177" lon="-0.54241">
        <ele>284.206909</ele>
        <time>2013-10-23T10:40:47Z</time>
      </trkpt>
      <trkpt lat="43.31135" lon="-0.54221">
        <ele>285.168213</ele>
        <time>2013-10-23T10:41:01Z</time>
      </trkpt>
      <trkpt lat="43.31079" lon="-0.54184">
        <ele>286.610229</ele>
        <time>2013-10-23T10:41:18Z</time>
      </trkpt>
      <trkpt lat="43.31053" lon="-0.54176">
        <ele>287.571411</ele>
        <time>2013-10-23T10:41:26Z</time>
      </trkpt>
      <trkpt lat="43.31046" lon="-0.54195">
        <ele>287.09082</ele>
        <time>2013-10-23T10:41:31Z</time>
      </trkpt>
      <trkpt lat="43.31047" lon="-0.54213">
        <ele>287.09082</ele>
        <time>2013-10-23T10:41:34Z</time>
      </trkpt>
      <trkpt lat="43.31045" lon="-0.54257">
        <ele>284.206909</ele>
        <time>2013-10-23T10:41:39Z</time>
      </trkpt>
      <trkpt lat="43.31034" lon="-0.54276">
        <ele>281.803589</ele>
        <time>2013-10-23T10:41:43Z</time>
      </trkpt>
      <trkpt lat="43.31036" lon="-0.543">
        <ele>281.322998</ele>
        <time>2013-10-23T10:41:49Z</time>
      </trkpt>
      <trkpt lat="43.31073" lon="-0.54387">
        <ele>280.361694</ele>
        <time>2013-10-23T10:42:05Z</time>
      </trkpt>
      <trkpt lat="43.3114" lon="-0.54475">
        <ele>279.880859</ele>
        <time>2013-10-23T10:42:23Z</time>
      </trkpt>
      <trkpt lat="43.31218" lon="-0.54532">
        <ele>280.361694</ele>
        <time>2013-10-23T10:42:40Z</time>
      </trkpt>
      <trkpt lat="43.31293" lon="-0.54607">
        <ele>280.842407</ele>
        <time>2013-10-23T10:42:58Z</time>
      </trkpt>
      <trkpt lat="43.31357" lon="-0.54695">
        <ele>280.842407</ele>
        <time>2013-10-23T10:43:14Z</time>
      </trkpt>
      <trkpt lat="43.31392" lon="-0.54744">
        <ele>281.803589</ele>
        <time>2013-10-23T10:43:24Z</time>
      </trkpt>
      <trkpt lat="43.31452" lon="-0.54826">
        <ele>281.322998</ele>
        <time>2013-10-23T10:43:39Z</time>
      </trkpt>
      <trkpt lat="43.31486" lon="-0.54875">
        <ele>278.438965</ele>
        <time>2013-10-23T10:43:46Z</time>
      </trkpt>
      <trkpt lat="43.31532" lon="-0.54942">
        <ele>275.074463</ele>
        <time>2013-10-23T10:43:55Z</time>
      </trkpt>
      <trkpt lat="43.31557" lon="-0.54984">
        <ele>271.229126</ele>
        <time>2013-10-23T10:44:00Z</time>
      </trkpt>
      <trkpt lat="43.3161" lon="-0.55064">
        <ele>270.2677</ele>
        <time>2013-10-23T10:44:10Z</time>
      </trkpt>
      <trkpt lat="43.31633" lon="-0.5508">
        <ele>270.748413</ele>
        <time>2013-10-23T10:44:14Z</time>
      </trkpt>
      <trkpt lat="43.31672" lon="-0.55092">
        <ele>274.59375</ele>
        <time>2013-10-23T10:44:22Z</time>
      </trkpt>
      <trkpt lat="43.31737" lon="-0.55111">
        <ele>276.035645</ele>
        <time>2013-10-23T10:44:37Z</time>
      </trkpt>
      <trkpt lat="43.31817" lon="-0.55153">
        <ele>277.477661</ele>
        <time>2013-10-23T10:44:53Z</time>
      </trkpt>
      <trkpt lat="43.31835" lon="-0.55181">
        <ele>278.919678</ele>
        <time>2013-10-23T10:44:58Z</time>
      </trkpt>
      <trkpt lat="43.31839" lon="-0.55192">
        <ele>278.919678</ele>
        <time>2013-10-23T10:45:00Z</time>
      </trkpt>
      <trkpt lat="43.31849" lon="-0.55209">
        <ele>278.919678</ele>
        <time>2013-10-23T10:45:04Z</time>
      </trkpt>
      <trkpt lat="43.31883" lon="-0.55263">
        <ele>280.842407</ele>
        <time>2013-10-23T10:45:18Z</time>
      </trkpt>
      <trkpt lat="43.3189" lon="-0.55275">
        <ele>282.284302</ele>
        <time>2013-10-23T10:45:22Z</time>
      </trkpt>
      <trkpt lat="43.31931" lon="-0.55337">
        <ele>283.726196</ele>
        <time>2013-10-23T10:45:43Z</time>
      </trkpt>
      <trkpt lat="43.31976" lon="-0.55405">
        <ele>282.765015</ele>
        <time>2013-10-23T10:46:04Z</time>
      </trkpt>
      <trkpt lat="43.31984" lon="-0.55415">
        <ele>283.245605</ele>
        <time>2013-10-23T10:46:07Z</time>
      </trkpt>
      <trkpt lat="43.31984" lon="-0.55427">
        <ele>281.322998</ele>
        <time>2013-10-23T10:46:10Z</time>
      </trkpt>
      <trkpt lat="43.31982" lon="-0.55431">
        <ele>281.803589</ele>
        <time>2013-10-23T10:46:11Z</time>
      </trkpt>
      <trkpt lat="43.31963" lon="-0.55488">
        <ele>279.880859</ele>
        <time>2013-10-23T10:46:22Z</time>
      </trkpt>
      <trkpt lat="43.31957" lon="-0.55513">
        <ele>277.477661</ele>
        <time>2013-10-23T10:46:26Z</time>
      </trkpt>
      <trkpt lat="43.31954" lon="-0.55523">
        <ele>276.035645</ele>
        <time>2013-10-23T10:46:28Z</time>
      </trkpt>
      <trkpt lat="43.3195" lon="-0.55551">
        <ele>273.151855</ele>
        <time>2013-10-23T10:46:32Z</time>
      </trkpt>
      <trkpt lat="43.31948" lon="-0.55559">
        <ele>271.709717</ele>
        <time>2013-10-23T10:46:33Z</time>
      </trkpt>
      <trkpt lat="43.31942" lon="-0.55603">
        <ele>267.383911</ele>
        <time>2013-10-23T10:46:38Z</time>
      </trkpt>
      <trkpt lat="43.31938" lon="-0.5562">
        <ele>264.019287</ele>
        <time>2013-10-23T10:46:40Z</time>
      </trkpt>
      <trkpt lat="43.31914" lon="-0.55675">
        <ele>260.17395</ele>
        <time>2013-10-23T10:46:48Z</time>
      </trkpt>
      <trkpt lat="43.31909" lon="-0.55687">
        <ele>258.251343</ele>
        <time>2013-10-23T10:46:50Z</time>
      </trkpt>
      <trkpt lat="43.31889" lon="-0.55711">
        <ele>254.406006</ele>
        <time>2013-10-23T10:46:56Z</time>
      </trkpt>
      <trkpt lat="43.31878" lon="-0.55722">
        <ele>251.041382</ele>
        <time>2013-10-23T10:46:59Z</time>
      </trkpt>
      <trkpt lat="43.31863" lon="-0.55737">
        <ele>247.676758</ele>
        <time>2013-10-23T10:47:02Z</time>
      </trkpt>
      <trkpt lat="43.31846" lon="-0.55753">
        <ele>244.792847</ele>
        <time>2013-10-23T10:47:05Z</time>
      </trkpt>
      <trkpt lat="43.31825" lon="-0.55763">
        <ele>240.467041</ele>
        <time>2013-10-23T10:47:09Z</time>
      </trkpt>
      <trkpt lat="43.3182" lon="-0.55762">
        <ele>239.986206</ele>
        <time>2013-10-23T10:47:10Z</time>
      </trkpt>
      <trkpt lat="43.31809" lon="-0.55761">
        <ele>238.544312</ele>
        <time>2013-10-23T10:47:12Z</time>
      </trkpt>
      <trkpt lat="43.3178" lon="-0.55754">
        <ele>234.699097</ele>
        <time>2013-10-23T10:47:17Z</time>
      </trkpt>
      <trkpt lat="43.31765" lon="-0.55753">
        <ele>229.892334</ele>
        <time>2013-10-23T10:47:20Z</time>
      </trkpt>
      <trkpt lat="43.31757" lon="-0.55752">
        <ele>228.450439</ele>
        <time>2013-10-23T10:47:22Z</time>
      </trkpt>
      <trkpt lat="43.31696" lon="-0.5577">
        <ele>223.643799</ele>
        <time>2013-10-23T10:47:31Z</time>
      </trkpt>
      <trkpt lat="43.31687" lon="-0.55773">
        <ele>221.721191</ele>
        <time>2013-10-23T10:47:32Z</time>
      </trkpt>
      <trkpt lat="43.31661" lon="-0.55793">
        <ele>220.279175</ele>
        <time>2013-10-23T10:47:35Z</time>
      </trkpt>
      <trkpt lat="43.31654" lon="-0.55802">
        <ele>219.317993</ele>
        <time>2013-10-23T10:47:36Z</time>
      </trkpt>
      <trkpt lat="43.31626" lon="-0.55847">
        <ele>214.51123</ele>
        <time>2013-10-23T10:47:40Z</time>
      </trkpt>
      <trkpt lat="43.31615" lon="-0.55904">
        <ele>209.704834</ele>
        <time>2013-10-23T10:47:44Z</time>
      </trkpt>
      <trkpt lat="43.31615" lon="-0.55947">
        <ele>206.340088</ele>
        <time>2013-10-23T10:47:47Z</time>
      </trkpt>
      <trkpt lat="43.316" lon="-0.5599">
        <ele>202.014282</ele>
        <time>2013-10-23T10:47:51Z</time>
      </trkpt>
      <trkpt lat="43.31592" lon="-0.56">
        <ele>200.091675</ele>
        <time>2013-10-23T10:47:52Z</time>
      </trkpt>
      <trkpt lat="43.31552" lon="-0.56059">
        <ele>194.804321</ele>
        <time>2013-10-23T10:47:57Z</time>
      </trkpt>
      <trkpt lat="43.31541" lon="-0.56078">
        <ele>191.439575</ele>
        <time>2013-10-23T10:47:59Z</time>
      </trkpt>
      <trkpt lat="43.31493" lon="-0.56121">
        <ele>187.11377</ele>
        <time>2013-10-23T10:48:06Z</time>
      </trkpt>
      <trkpt lat="43.31479" lon="-0.56137">
        <ele>184.229858</ele>
        <time>2013-10-23T10:48:09Z</time>
      </trkpt>
      <trkpt lat="43.31469" lon="-0.56152">
        <ele>183.268433</ele>
        <time>2013-10-23T10:48:13Z</time>
      </trkpt>
      <trkpt lat="43.31446" lon="-0.56161">
        <ele>181.826416</ele>
        <time>2013-10-23T10:48:17Z</time>
      </trkpt>
      <trkpt lat="43.31412" lon="-0.56165">
        <ele>180.384521</ele>
        <time>2013-10-23T10:48:22Z</time>
      </trkpt>
      <trkpt lat="43.31367" lon="-0.56199">
        <ele>175.09729</ele>
        <time>2013-10-23T10:48:28Z</time>
      </trkpt>
      <trkpt lat="43.31333" lon="-0.56222">
        <ele>168.848755</ele>
        <time>2013-10-23T10:48:32Z</time>
      </trkpt>
      <trkpt lat="43.31325" lon="-0.56226">
        <ele>166.926025</ele>
        <time>2013-10-23T10:48:33Z</time>
      </trkpt>
      <trkpt lat="43.31303" lon="-0.56251">
        <ele>162.600098</ele>
        <time>2013-10-23T10:48:37Z</time>
      </trkpt>
      <trkpt lat="43.31292" lon="-0.56265">
        <ele>159.235474</ele>
        <time>2013-10-23T10:48:39Z</time>
      </trkpt>
      <trkpt lat="43.31272" lon="-0.56283">
        <ele>154.909546</ele>
        <time>2013-10-23T10:48:42Z</time>
      </trkpt>
      <trkpt lat="43.31231" lon="-0.56339">
        <ele>150.103027</ele>
        <time>2013-10-23T10:48:48Z</time>
      </trkpt>
      <trkpt lat="43.31218" lon="-0.56351">
        <ele>149.141602</ele>
        <time>2013-10-23T10:48:50Z</time>
      </trkpt>
      <trkpt lat="43.31205" lon="-0.56354">
        <ele>147.699707</ele>
        <time>2013-10-23T10:48:52Z</time>
      </trkpt>
      <trkpt lat="43.31199" lon="-0.56352">
        <ele>147.699707</ele>
        <time>2013-10-23T10:48:53Z</time>
      </trkpt>
      <trkpt lat="43.31175" lon="-0.56344">
        <ele>147.218994</ele>
        <time>2013-10-23T10:48:58Z</time>
      </trkpt>
      <trkpt lat="43.31161" lon="-0.56356">
        <ele>146.738403</ele>
        <time>2013-10-23T10:49:03Z</time>
      </trkpt>
      <trkpt lat="43.31156" lon="-0.5645">
        <ele>145.7771</ele>
        <time>2013-10-23T10:49:18Z</time>
      </trkpt>
      <trkpt lat="43.3115" lon="-0.56485">
        <ele>145.7771</ele>
        <time>2013-10-23T10:49:24Z</time>
      </trkpt>
      <trkpt lat="43.31131" lon="-0.56543">
        <ele>144.335205</ele>
        <time>2013-10-23T10:49:38Z</time>
      </trkpt>
      <trkpt lat="43.31111" lon="-0.56575">
        <ele>143.373657</ele>
        <time>2013-10-23T10:49:49Z</time>
      </trkpt>
      <trkpt lat="43.31103" lon="-0.56613">
        <ele>144.335205</ele>
        <time>2013-10-23T10:50:01Z</time>
      </trkpt>
      <trkpt lat="43.31106" lon="-0.56674">
        <ele>142.893066</ele>
        <time>2013-10-23T10:50:16Z</time>
      </trkpt>
      <trkpt lat="43.31112" lon="-0.56695">
        <ele>143.85437</ele>
        <time>2013-10-23T10:50:22Z</time>
      </trkpt>
      <trkpt lat="43.31147" lon="-0.56713">
        <ele>143.373657</ele>
        <time>2013-10-23T10:50:34Z</time>
      </trkpt>
      <trkpt lat="43.31155" lon="-0.56767">
        <ele>143.373657</ele>
        <time>2013-10-23T10:50:47Z</time>
      </trkpt>
      <trkpt lat="43.31155" lon="-0.56834">
        <ele>143.373657</ele>
        <time>2013-10-23T10:51:02Z</time>
      </trkpt>
      <trkpt lat="43.31162" lon="-0.56842">
        <ele>142.412476</ele>
        <time>2013-10-23T10:51:05Z</time>
      </trkpt>
      <trkpt lat="43.31228" lon="-0.56843">
        <ele>143.373657</ele>
        <time>2013-10-23T10:51:25Z</time>
      </trkpt>
      <trkpt lat="43.31255" lon="-0.56844">
        <ele>142.412476</ele>
        <time>2013-10-23T10:51:33Z</time>
      </trkpt>
      <trkpt lat="43.31251" lon="-0.56865">
        <ele>141.931763</ele>
        <time>2013-10-23T10:51:42Z</time>
      </trkpt>
      <trkpt lat="43.31232" lon="-0.56868">
        <ele>142.893066</ele>
        <time>2013-10-23T10:51:48Z</time>
      </trkpt>
      <trkpt lat="43.31212" lon="-0.56884">
        <ele>142.412476</ele>
        <time>2013-10-23T10:51:56Z</time>
      </trkpt>
      <trkpt lat="43.31167" lon="-0.56881">
        <ele>142.412476</ele>
        <time>2013-10-23T10:52:10Z</time>
      </trkpt>
      <trkpt lat="43.31125" lon="-0.56855">
        <ele>142.893066</ele>
        <time>2013-10-23T10:52:21Z</time>
      </trkpt>
      <trkpt lat="43.31093" lon="-0.56837">
        <ele>142.893066</ele>
        <time>2013-10-23T10:52:29Z</time>
      </trkpt>
      <trkpt lat="43.31068" lon="-0.56845">
        <ele>143.373657</ele>
        <time>2013-10-23T10:52:35Z</time>
      </trkpt>
      <trkpt lat="43.31013" lon="-0.56922">
        <ele>145.296387</ele>
        <time>2013-10-23T10:52:54Z</time>
      </trkpt>
      <trkpt lat="43.30969" lon="-0.56997">
        <ele>148.661011</ele>
        <time>2013-10-23T10:53:13Z</time>
      </trkpt>
      <trkpt lat="43.30964" lon="-0.57054">
        <ele>151.064209</ele>
        <time>2013-10-23T10:53:27Z</time>
      </trkpt>
      <trkpt lat="43.3097" lon="-0.57139">
        <ele>152.025757</ele>
        <time>2013-10-23T10:53:47Z</time>
      </trkpt>
      <trkpt lat="43.30986" lon="-0.57214">
        <ele>154.428955</ele>
        <time>2013-10-23T10:54:04Z</time>
      </trkpt>
      <trkpt lat="43.30992" lon="-0.57274">
        <ele>156.351563</ele>
        <time>2013-10-23T10:54:17Z</time>
      </trkpt>
      <trkpt lat="43.30982" lon="-0.57347">
        <ele>157.793579</ele>
        <time>2013-10-23T10:54:32Z</time>
      </trkpt>
      <trkpt lat="43.30982" lon="-0.5741">
        <ele>159.716187</ele>
        <time>2013-10-23T10:54:45Z</time>
      </trkpt>
      <trkpt lat="43.30999" lon="-0.57485">
        <ele>161.638916</ele>
        <time>2013-10-23T10:55:02Z</time>
      </trkpt>
      <trkpt lat="43.31044" lon="-0.57557">
        <ele>164.522705</ele>
        <time>2013-10-23T10:55:22Z</time>
      </trkpt>
      <trkpt lat="43.31057" lon="-0.57595">
        <ele>167.887329</ele>
        <time>2013-10-23T10:55:35Z</time>
      </trkpt>
      <trkpt lat="43.31052" lon="-0.57624">
        <ele>171.252075</ele>
        <time>2013-10-23T10:55:46Z</time>
      </trkpt>
      <trkpt lat="43.31037" lon="-0.57665">
        <ele>172.69397</ele>
        <time>2013-10-23T10:56:01Z</time>
      </trkpt>
      <trkpt lat="43.31077" lon="-0.57699">
        <ele>172.213257</ele>
        <time>2013-10-23T10:56:14Z</time>
      </trkpt>
      <trkpt lat="43.31143" lon="-0.57719">
        <ele>172.213257</ele>
        <time>2013-10-23T10:56:28Z</time>
      </trkpt>
      <trkpt lat="43.31195" lon="-0.57734">
        <ele>169.329468</ele>
        <time>2013-10-23T10:56:38Z</time>
      </trkpt>
      <trkpt lat="43.31245" lon="-0.57735">
        <ele>166.445313</ele>
        <time>2013-10-23T10:56:46Z</time>
      </trkpt>
      <trkpt lat="43.31293" lon="-0.57733">
        <ele>164.042114</ele>
        <time>2013-10-23T10:56:52Z</time>
      </trkpt>
      <trkpt lat="43.31379" lon="-0.57732">
        <ele>165.003418</ele>
        <time>2013-10-23T10:57:05Z</time>
      </trkpt>
      <trkpt lat="43.31425" lon="-0.57734">
        <ele>165.484131</ele>
        <time>2013-10-23T10:57:13Z</time>
      </trkpt>
      <trkpt lat="43.31436" lon="-0.57738">
        <ele>165.003418</ele>
        <time>2013-10-23T10:57:15Z</time>
      </trkpt>
      <trkpt lat="43.31512" lon="-0.57792">
        <ele>163.080811</ele>
        <time>2013-10-23T10:57:30Z</time>
      </trkpt>
      <trkpt lat="43.31528" lon="-0.57803">
        <ele>163.080811</ele>
        <time>2013-10-23T10:57:33Z</time>
      </trkpt>
      <trkpt lat="43.31528" lon="-0.57831">
        <ele>164.042114</ele>
        <time>2013-10-23T10:57:38Z</time>
      </trkpt>
      <trkpt lat="43.31517" lon="-0.57862">
        <ele>166.926025</ele>
        <time>2013-10-23T10:57:49Z</time>
      </trkpt>
      <trkpt lat="43.31517" lon="-0.57864">
        <ele>167.406738</ele>
        <time>2013-10-23T10:57:50Z</time>
      </trkpt>
      <trkpt lat="43.31502" lon="-0.57902">
        <ele>170.771362</ele>
        <time>2013-10-23T10:58:05Z</time>
      </trkpt>
      <trkpt lat="43.3149" lon="-0.57936">
        <ele>174.135864</ele>
        <time>2013-10-23T10:58:19Z</time>
      </trkpt>
      <trkpt lat="43.3148" lon="-0.57968">
        <ele>177.50061</ele>
        <time>2013-10-23T10:58:33Z</time>
      </trkpt>
      <trkpt lat="43.3148" lon="-0.5797">
        <ele>177.50061</ele>
        <time>2013-10-23T10:58:34Z</time>
      </trkpt>
      <trkpt lat="43.3147" lon="-0.57997">
        <ele>180.384521</ele>
        <time>2013-10-23T10:58:47Z</time>
      </trkpt>
      <trkpt lat="43.31462" lon="-0.58015">
        <ele>182.787842</ele>
        <time>2013-10-23T10:58:57Z</time>
      </trkpt>
      <trkpt lat="43.31452" lon="-0.58033">
        <ele>185.671753</ele>
        <time>2013-10-23T10:59:07Z</time>
      </trkpt>
      <trkpt lat="43.31428" lon="-0.58068">
        <ele>188.555786</ele>
        <time>2013-10-23T10:59:25Z</time>
      </trkpt>
      <trkpt lat="43.31404" lon="-0.58101">
        <ele>189.036377</ele>
        <time>2013-10-23T10:59:40Z</time>
      </trkpt>
      <trkpt lat="43.31363" lon="-0.58155">
        <ele>191.920288</ele>
        <time>2013-10-23T11:00:01Z</time>
      </trkpt>
      <trkpt lat="43.31335" lon="-0.58192">
        <ele>195.284912</ele>
        <time>2013-10-23T11:00:15Z</time>
      </trkpt>
      <trkpt lat="43.31304" lon="-0.58249">
        <ele>197.688232</ele>
        <time>2013-10-23T11:00:36Z</time>
      </trkpt>
      <trkpt lat="43.31288" lon="-0.58287">
        <ele>201.052856</ele>
        <time>2013-10-23T11:00:50Z</time>
      </trkpt>
      <trkpt lat="43.31287" lon="-0.5829">
        <ele>201.052856</ele>
        <time>2013-10-23T11:00:51Z</time>
      </trkpt>
      <trkpt lat="43.31261" lon="-0.58328">
        <ele>203.93689</ele>
        <time>2013-10-23T11:01:08Z</time>
      </trkpt>
      <trkpt lat="43.31246" lon="-0.58363">
        <ele>207.782104</ele>
        <time>2013-10-23T11:01:21Z</time>
      </trkpt>
      <trkpt lat="43.31237" lon="-0.58402">
        <ele>210.666016</ele>
        <time>2013-10-23T11:01:36Z</time>
      </trkpt>
      <trkpt lat="43.31222" lon="-0.58441">
        <ele>214.03064</ele>
        <time>2013-10-23T11:01:53Z</time>
      </trkpt>
      <trkpt lat="43.31202" lon="-0.58488">
        <ele>216.914673</ele>
        <time>2013-10-23T11:02:12Z</time>
      </trkpt>
      <trkpt lat="43.31189" lon="-0.58513">
        <ele>220.279175</ele>
        <time>2013-10-23T11:02:23Z</time>
      </trkpt>
      <trkpt lat="43.31169" lon="-0.58539">
        <ele>220.759888</ele>
        <time>2013-10-23T11:02:34Z</time>
      </trkpt>
      <trkpt lat="43.31175" lon="-0.58549">
        <ele>221.721191</ele>
        <time>2013-10-23T11:02:40Z</time>
      </trkpt>
      <trkpt lat="43.31217" lon="-0.5856">
        <ele>221.240601</ele>
        <time>2013-10-23T11:02:54Z</time>
      </trkpt>
      <trkpt lat="43.31301" lon="-0.58588">
        <ele>218.83728</ele>
        <time>2013-10-23T11:03:07Z</time>
      </trkpt>
      <trkpt lat="43.31328" lon="-0.586">
        <ele>219.317993</ele>
        <time>2013-10-23T11:03:11Z</time>
      </trkpt>
      <trkpt lat="43.31391" lon="-0.58604">
        <ele>218.356567</ele>
        <time>2013-10-23T11:03:23Z</time>
      </trkpt>
      <trkpt lat="43.31408" lon="-0.58604">
        <ele>217.875977</ele>
        <time>2013-10-23T11:03:27Z</time>
      </trkpt>
      <trkpt lat="43.31431" lon="-0.58595">
        <ele>215.953247</ele>
        <time>2013-10-23T11:03:32Z</time>
      </trkpt>
      <trkpt lat="43.31463" lon="-0.58565">
        <ele>212.108032</ele>
        <time>2013-10-23T11:03:41Z</time>
      </trkpt>
      <trkpt lat="43.31498" lon="-0.58545">
        <ele>210.185425</ele>
        <time>2013-10-23T11:03:48Z</time>
      </trkpt>
      <trkpt lat="43.31543" lon="-0.58539">
        <ele>207.301392</ele>
        <time>2013-10-23T11:03:54Z</time>
      </trkpt>
      <trkpt lat="43.31565" lon="-0.5854">
        <ele>203.456177</ele>
        <time>2013-10-23T11:03:57Z</time>
      </trkpt>
      <trkpt lat="43.31575" lon="-0.58541">
        <ele>202.494873</ele>
        <time>2013-10-23T11:03:59Z</time>
      </trkpt>
      <trkpt lat="43.31587" lon="-0.58551">
        <ele>200.572266</ele>
        <time>2013-10-23T11:04:02Z</time>
      </trkpt>
      <trkpt lat="43.31589" lon="-0.58564">
        <ele>201.533569</ele>
        <time>2013-10-23T11:04:04Z</time>
      </trkpt>
      <trkpt lat="43.31589" lon="-0.58576">
        <ele>202.494873</ele>
        <time>2013-10-23T11:04:06Z</time>
      </trkpt>
      <trkpt lat="43.31591" lon="-0.58594">
        <ele>203.93689</ele>
        <time>2013-10-23T11:04:09Z</time>
      </trkpt>
      <trkpt lat="43.31592" lon="-0.58608">
        <ele>203.93689</ele>
        <time>2013-10-23T11:04:11Z</time>
      </trkpt>
      <trkpt lat="43.31588" lon="-0.58635">
        <ele>205.378784</ele>
        <time>2013-10-23T11:04:15Z</time>
      </trkpt>
      <trkpt lat="43.31576" lon="-0.58656">
        <ele>206.820679</ele>
        <time>2013-10-23T11:04:25Z</time>
      </trkpt>
      <trkpt lat="43.31576" lon="-0.58656">
        <ele>202.975464</ele>
        <time>2013-10-23T11:04:45Z</time>
      </trkpt>
      <trkpt lat="43.31576" lon="-0.58656">
        <ele>206.340088</ele>
        <time>2013-10-23T11:04:46Z</time>
      </trkpt>
      <trkpt lat="43.31578" lon="-0.58655">
        <ele>204.898071</ele>
        <time>2013-10-23T11:04:54Z</time>
      </trkpt>
    </trkseg>
  </trk>
</gpx>